Meteorology homepage Current Weather at the Dr. Eugene Chermack
Surface Weather Station at SUNY Oswego









Pressure, temperature, and humidity data

                                          ---------- 10-meter --------   -------------- 2-meter -----------------
Year    mnth   day  hh    mm     ss       TT TTmax TTmin RH Rhmax RHmin TT TTmax TTmin RH Rhmax RHmin Td Tdmax Tdmin

-sfc pressure --- 10-meter --- -- Visibility--
PP PPmax PPmin Tch Tchmax Tchmin Vis Vismax Vismin Current_weather

-- Ground -- --- Precipitation ----
Tg Tgmax Tgmin Vr_daily Vr_month Vr_year
2018	02	17	22	24	50 	  31.0	  33.5	  31.0	  92.4	 92.3	 67.7	  31.0	  33.4	  31.0	  87.0	  87.0	  66.8	  27.6	  27.6	  23.6	 1005.5	 1006.2	 1005.5	  29.9	  32.9	  21.3	53257	 65617	 25568	Rain (or drizzle) and snow, light	  33.9	  34.0	  33.9	  0.00	  1.04	  6.02	
2018	02	17	22	24	20 	  31.0	  33.5	  31.0	  92.3	 92.3	 67.7	  31.0	  33.4	  31.0	  87.0	  87.0	  66.8	  27.6	  27.6	  23.6	 1005.5	 1006.2	 1005.5	  29.9	  32.9	  21.3	61269	 65617	 25568	Rain (or drizzle) and snow, light	  33.9	  34.0	  33.9	  0.00	  1.04	  6.02	
2018	02	17	22	23	50 	  31.0	  33.5	  31.0	  92.3	 92.2	 67.4	  31.0	  33.4	  31.0	  87.0	  86.9	  66.6	  27.5	  27.6	  23.5	 1005.5	 1006.2	 1005.5	  31.0	  32.9	  21.3	51988	 65617	 25568	Rain (or drizzle) and snow, light	  33.9	  34.0	  33.9	  0.00	  1.04	  6.02	
2018	02	17	22	23	20 	  31.0	  33.5	  31.0	  92.2	 92.2	 67.4	  31.0	  33.4	  31.0	  86.9	  86.9	  66.6	  27.5	  27.6	  23.5	 1005.5	 1006.2	 1005.5	  31.0	  32.9	  21.3	46568	 65617	 25568	Rain (or drizzle) and snow, light	  33.9	  34.0	  33.9	  0.00	  1.04	  6.02	
2018	02	17	22	22	50 	  31.0	  33.5	  31.0	  92.1	 92.0	 67.1	  31.0	  33.5	  31.0	  86.9	  86.8	  66.4	  27.5	  27.6	  23.4	 1005.5	 1006.2	 1005.5	  31.0	  32.9	  21.3	46325	 65617	 25568	Rain (or drizzle) and snow, light	  33.9	  34.0	  33.9	  0.00	  1.04	  6.02	
2018	02	17	22	22	20 	  31.0	  33.5	  31.0	  92.0	 92.0	 67.1	  31.0	  33.5	  31.0	  86.8	  86.8	  66.4	  27.5	  27.6	  23.4	 1005.5	 1006.2	 1005.5	  31.0	  32.9	  21.3	52086	 65617	 25568	Rain (or drizzle) and snow, light	  33.9	  34.0	  33.9	  0.00	  1.04	  6.02	
2018	02	17	22	21	50 	  31.0	  33.5	  31.1	  91.9	 91.8	 66.7	  31.1	  33.5	  31.1	  86.7	  86.6	  66.1	  27.5	  27.5	  23.4	 1005.5	 1006.2	 1005.5	  29.2	  32.9	  21.3	53320	 65617	 25568	Rain (or drizzle) and snow, light	  33.9	  34.0	  33.9	  0.00	  1.04	  6.02	
2018	02	17	22	21	20 	  31.1	  33.5	  31.1	  91.8	 91.8	 66.7	  31.1	  33.5	  31.1	  86.6	  86.6	  66.1	  27.5	  27.5	  23.4	 1005.5	 1006.2	 1005.5	  29.2	  32.9	  21.3	58704	 65617	 25568	Rain (or drizzle) and snow, light	  33.9	  34.0	  33.9	  0.00	  1.04	  6.02	
2018	02	17	22	20	50 	  31.1	  33.6	  31.1	  91.7	 91.7	 66.3	  31.1	  33.5	  31.1	  86.6	  86.5	  65.7	  27.5	  27.5	  23.3	 1005.5	 1006.2	 1005.5	  27.4	  32.9	  21.3	49301	 65617	 25568	Rain (or drizzle) and snow, light	  33.9	  34.0	  33.9	  0.00	  1.04	  6.02	
2018	02	17	22	20	20 	  31.1	  33.6	  31.1	  91.7	 91.7	 66.3	  31.1	  33.5	  31.1	  86.5	  86.5	  65.7	  27.5	  27.5	  23.3	 1005.5	 1006.2	 1005.5	  27.4	  32.9	  21.3	43746	 65617	 25568	Rain (or drizzle) and snow, light	  33.9	  34.0	  33.9	  0.00	  1.04	  6.02	
2018	02	17	22	19	50 	  31.1	  33.6	  31.1	  91.6	 91.4	 65.9	  31.1	  33.6	  31.1	  86.4	  86.3	  65.4	  27.5	  27.5	  23.1	 1005.5	 1006.2	 1005.5	  29.7	  32.9	  21.3	36420	 65617	 25568	Snow showers, light	  33.9	  34.0	  33.9	  0.00	  1.04	  6.02	
2018	02	17	22	19	20 	  31.1	  33.6	  31.1	  91.4	 91.4	 65.9	  31.1	  33.6	  31.1	  86.3	  86.3	  65.4	  27.4	  27.5	  23.1	 1005.5	 1006.2	 1005.5	  29.7	  32.9	  21.3	36505	 65617	 25568	Snow showers, light	  33.9	  34.0	  33.9	  0.00	  1.04	  6.02	
2018	02	17	22	18	50 	  31.1	  33.6	  31.1	  91.3	 91.3	 65.6	  31.1	  33.6	  31.1	  86.2	  86.1	  64.9	  27.4	  27.5	  23.0	 1005.6	 1006.2	 1005.5	  29.4	  32.9	  21.3	44094	 65617	 25568	Snow showers, light	  33.9	  34.0	  33.9	  0.00	  1.04	  6.02	
2018	02	17	22	18	20 	  31.1	  33.6	  31.1	  91.3	 91.3	 65.6	  31.1	  33.6	  31.1	  86.1	  86.1	  64.9	  27.4	  27.5	  23.0	 1005.6	 1006.2	 1005.5	  29.4	  32.9	  21.3	33832	 65617	 25568	Snow showers, light	  33.9	  34.0	  33.9	  0.00	  1.04	  6.02	
2018	02	17	22	17	50 	  31.1	  33.6	  31.1	  91.2	 91.1	 65.3	  31.1	  33.6	  31.1	  86.0	  86.0	  64.7	  27.4	  27.4	  23.0	 1005.6	 1006.2	 1005.5	  25.3	  32.9	  21.3	32962	 65617	 25568	Rain showers, light	  33.9	  34.0	  33.9	  0.00	  1.04	  6.02	
2018	02	17	22	17	20 	  31.1	  33.6	  31.1	  91.1	 91.1	 65.3	  31.1	  33.6	  31.1	  86.0	  86.0	  64.7	  27.4	  27.4	  23.0	 1005.5	 1006.2	 1005.5	  25.3	  32.9	  21.3	44753	 65617	 25568	Rain showers, light	  33.9	  34.0	  33.9	  0.00	  1.04	  6.02	
2018	02	17	22	16	50 	  31.1	  33.7	  31.2	  91.0	 90.9	 65.2	  31.2	  33.6	  31.2	  85.9	  85.9	  64.5	  27.4	  27.4	  22.9	 1005.5	 1006.2	 1005.5	  25.5	  32.9	  21.3	34757	 65617	 25568	Rain showers, light	  33.9	  34.0	  33.9	  0.00	  1.04	  6.02	
2018	02	17	22	16	20 	  31.2	  33.7	  31.2	  90.9	 90.9	 65.2	  31.2	  33.6	  31.2	  85.9	  85.9	  64.5	  27.4	  27.4	  22.9	 1005.5	 1006.2	 1005.5	  25.5	  32.9	  21.3	30557	 65617	 25568	Rain showers, light	  33.9	  34.0	  33.9	  0.00	  1.04	  6.02	
2018	02	17	22	15	50 	  31.2	  33.7	  31.2	  90.9	 90.8	 65.1	  31.2	  33.6	  31.2	  85.8	  85.8	  64.4	  27.4	  27.4	  22.9	 1005.5	 1006.2	 1005.5	  22.3	  32.9	  21.3	31151	 65617	 25568	Rain showers, light	  33.9	  34.0	  33.9	  0.00	  1.04	  6.02	
2018	02	17	22	15	20 	  31.2	  33.7	  31.2	  90.8	 90.8	 65.1	  31.2	  33.6	  31.2	  85.8	  85.8	  64.4	  27.4	  27.4	  22.9	 1005.5	 1006.2	 1005.5	  22.3	  32.9	  21.3	25567	 65617	 25568	Rain showers, light	  33.9	  34.0	  33.9	  0.00	  1.04	  6.02	
2018	02	17	22	14	50 	  31.2	  33.7	  31.2	  90.7	 90.6	 65.0	  31.2	  33.7	  31.2	  85.7	  85.7	  64.4	  27.4	  27.4	  22.9	 1005.5	 1006.2	 1005.5	  21.3	  32.9	  21.3	29566	 65617	 27808	Rain showers, light	  33.9	  34.0	  33.9	  0.00	  1.04	  6.02	
2018	02	17	22	14	20 	  31.2	  33.7	  31.2	  90.6	 90.6	 65.0	  31.2	  33.7	  31.2	  85.7	  85.7	  64.4	  27.4	  27.4	  22.9	 1005.5	 1006.2	 1005.5	  21.3	  32.9	  21.3	28208	 65617	 27808	Rain showers, light	  33.9	  34.0	  33.9	  0.00	  1.04	  6.02	
2018	02	17	22	13	50 	  31.2	  33.7	  31.2	  90.5	 90.4	 64.9	  31.2	  33.7	  31.2	  85.6	  85.5	  64.4	  27.3	  27.4	  22.9	 1005.5	 1006.2	 1005.6	  25.9	  32.9	  24.3	27808	 65617	 28402	Rain showers, light	  33.9	  34.0	  33.9	  0.00	  1.04	  6.02	
2018	02	17	22	13	20 	  31.2	  33.7	  31.2	  90.4	 90.4	 64.9	  31.2	  33.7	  31.2	  85.5	  85.5	  64.4	  27.3	  27.4	  22.9	 1005.6	 1006.2	 1005.6	  25.9	  32.9	  24.3	43848	 65617	 28402	Rain showers, light	  33.9	  34.0	  33.9	  0.00	  1.04	  6.02	
2018	02	17	22	12	50 	  31.2	  33.7	  31.2	  90.3	 90.1	 64.8	  31.2	  33.7	  31.3	  85.5	  85.4	  64.4	  27.3	  27.4	  22.9	 1005.6	 1006.2	 1005.6	  28.6	  32.9	  24.3	47024	 65617	 28402	Rain showers, light	  33.9	  34.0	  33.9	  0.00	  1.04	  6.02	
2018	02	17	22	12	20 	  31.2	  33.7	  31.2	  90.1	 90.1	 64.8	  31.3	  33.7	  31.3	  85.4	  85.4	  64.4	  27.3	  27.4	  22.9	 1005.6	 1006.2	 1005.6	  28.6	  32.9	  24.3	40377	 65617	 28402	Rain showers, light	  33.9	  34.0	  33.9	  0.00	  1.04	  6.02	
2018	02	17	22	11	50 	  31.2	  33.7	  31.3	  90.0	 89.8	 64.7	  31.3	  33.7	  31.3	  85.3	  85.2	  64.3	  27.3	  27.3	  22.9	 1005.6	 1006.2	 1005.6	  29.4	  32.9	  24.3	45620	 65617	 28402	Rain showers, light	  33.9	  34.0	  33.9	  0.00	  1.04	  6.02	
2018	02	17	22	11	20 	  31.3	  33.7	  31.3	  89.8	 89.8	 64.7	  31.3	  33.7	  31.3	  85.2	  85.2	  64.3	  27.3	  27.3	  22.9	 1005.6	 1006.2	 1005.6	  29.4	  32.9	  24.3	48389	 65617	 28402	Rain showers, light	  33.9	  34.0	  33.9	  0.00	  1.04	  6.02	
2018	02	17	22	10	50 	  31.3	  33.8	  31.3	  89.7	 89.6	 64.5	  31.3	  33.7	  31.3	  85.1	  85.0	  64.2	  27.2	  27.3	  22.9	 1005.7	 1006.2	 1005.7	  30.0	  32.9	  24.3	57962	 65617	 28402	Rain showers, light	  33.9	  34.0	  33.9	  0.00	  1.04	  6.02	
2018	02	17	22	10	20 	  31.3	  33.8	  31.3	  89.6	 89.6	 64.5	  31.3	  33.7	  31.3	  85.0	  85.0	  64.2	  27.2	  27.3	  22.9	 1005.7	 1006.2	 1005.7	  30.0	  32.9	  24.3	63444	 65617	 28402	Rain showers, light	  33.9	  34.0	  33.9	  0.00	  1.04	  6.02	
2018	02	17	22	09	50 	  31.3	  33.8	  31.3	  89.4	 89.2	 64.3	  31.3	  33.7	  31.3	  84.9	  84.8	  64.0	  27.2	  27.3	  22.8	 1005.7	 1006.2	 1005.7	  31.3	  32.9	  24.3	65616	 65617	 28402	Rain showers, light	  33.9	  34.0	  33.9	  0.00	  1.04	  6.02	
2018	02	17	22	09	20 	  31.3	  33.8	  31.3	  89.2	 89.2	 64.3	  31.3	  33.7	  31.3	  84.8	  84.8	  64.0	  27.2	  27.3	  22.8	 1005.7	 1006.2	 1005.7	  31.3	  32.9	  24.3	65616	 65617	 28402	Rain showers, light	  33.9	  34.0	  33.9	  0.00	  1.04	  6.02	
2018	02	17	22	08	50 	  31.3	  33.8	  31.3	  89.1	 88.9	 64.1	  31.3	  33.7	  31.3	  84.7	  84.6	  63.8	  27.2	  27.2	  22.8	 1005.7	 1006.2	 1005.7	  31.3	  32.9	  24.3	48454	 65617	 28402	Rain showers, light	  33.9	  34.0	  33.9	  0.00	  1.04	  6.02	
2018	02	17	22	08	20 	  31.3	  33.8	  31.3	  88.9	 88.9	 64.1	  31.3	  33.7	  31.3	  84.6	  84.6	  63.8	  27.1	  27.2	  22.8	 1005.8	 1006.2	 1005.7	  31.3	  32.9	  24.3	49698	 65617	 28402	Rain showers, light	  33.9	  34.0	  33.9	  0.00	  1.04	  6.02	
2018	02	17	22	07	50 	  31.3	  33.8	  31.4	  88.7	 88.6	 63.8	  31.4	  33.8	  31.4	  84.4	  84.3	  63.5	  27.1	  27.2	  22.7	 1005.8	 1006.2	 1005.7	  31.3	  32.9	  24.3	53218	 65617	 28402	Rain showers, light	  33.9	  34.0	  33.9	  0.00	  1.04	  6.02	
2018	02	17	22	07	20 	  31.4	  33.8	  31.4	  88.6	 88.6	 63.8	  31.4	  33.8	  31.4	  84.3	  84.3	  63.5	  27.1	  27.2	  22.7	 1005.8	 1006.2	 1005.7	  31.3	  32.9	  24.3	51384	 65617	 28402	Rain showers, light	  33.9	  34.0	  33.9	  0.00	  1.04	  6.02	
2018	02	17	22	06	50 	  31.4	  33.9	  31.4	  88.4	 88.3	 63.4	  31.4	  33.8	  31.4	  84.2	  84.0	  63.2	  27.1	  27.2	  22.6	 1005.8	 1006.2	 1005.7	  30.4	  32.9	  24.3	55026	 65617	 28402	Rain showers, light	  33.9	  34.0	  33.9	  0.00	  1.04	  6.02	
2018	02	17	22	06	20 	  31.4	  33.9	  31.4	  88.3	 88.3	 63.4	  31.4	  33.8	  31.4	  84.0	  84.0	  63.2	  27.1	  27.2	  22.6	 1005.8	 1006.2	 1005.7	  30.4	  32.9	  24.3	43884	 65617	 28402	Rain showers, light	  33.9	  34.0	  33.9	  0.00	  1.04	  6.02	
2018	02	17	22	05	50 	  31.4	  33.9	  31.4	  88.1	 88.0	 63.0	  31.4	  33.8	  31.5	  83.9	  83.8	  62.9	  27.1	  27.1	  22.5	 1005.8	 1006.2	 1005.7	  31.1	  32.9	  23.8	44727	 65617	 28402	Rain showers, light	  33.9	  34.0	  33.9	  0.00	  1.04	  6.02	
2018	02	17	22	05	20 	  31.4	  33.9	  31.4	  88.0	 88.0	 63.0	  31.5	  33.8	  31.5	  83.8	  83.8	  62.9	  27.0	  27.1	  22.5	 1005.9	 1006.2	 1005.7	  31.1	  32.9	  23.8	59999	 65617	 28402	Rain showers, light	  33.9	  34.0	  33.9	  0.00	  1.04	  6.02	
2018	02	17	22	04	50 	  31.5	  33.9	  31.5	  87.8	 87.6	 62.5	  31.5	  33.9	  31.5	  83.7	  83.6	  62.5	  27.0	  27.1	  22.4	 1005.9	 1006.2	 1005.7	  31.4	  32.9	  22.1	52874	 65617	 28402	Rain showers, light	  33.9	  34.0	  33.9	  0.00	  1.04	  6.02	
2018	02	17	22	04	20 	  31.5	  33.9	  31.5	  87.6	 87.6	 62.5	  31.5	  33.9	  31.5	  83.6	  83.6	  62.5	  27.0	  27.1	  22.4	 1005.8	 1006.2	 1005.7	  31.4	  32.9	  22.1	43487	 65617	 28402	Rain showers, light	  33.9	  34.0	  33.9	  0.00	  1.04	  6.02	
2018	02	17	22	03	50 	  31.5	  34.0	  31.5	  87.4	 87.3	 61.9	  31.5	  33.9	  31.5	  83.4	  83.3	  61.9	  27.0	  27.1	  22.2	 1005.8	 1006.2	 1005.7	  30.5	  32.9	  22.1	40383	 65617	 28402	Rain showers, light	  33.9	  34.0	  33.9	  0.00	  1.04	  6.02	
2018	02	17	22	03	20 	  31.5	  34.0	  31.5	  87.3	 87.3	 61.9	  31.5	  33.9	  31.5	  83.3	  83.3	  61.9	  26.9	  27.1	  22.2	 1005.8	 1006.2	 1005.7	  30.5	  32.9	  22.1	38838	 65617	 28402	Rain showers, light	  33.9	  34.0	  33.9	  0.00	  1.04	  6.02	
2018	02	17	22	02	50 	  31.5	  34.0	  31.6	  87.1	 86.9	 61.3	  31.6	  34.0	  31.6	  83.2	  83.1	  61.3	  26.9	  27.0	  22.0	 1005.8	 1006.2	 1005.7	  31.5	  32.9	  22.1	47352	 65617	 28402	Rain showers, light	  33.9	  34.0	  33.9	  0.00	  1.04	  6.02	
2018	02	17	22	02	20 	  31.6	  34.0	  31.6	  86.9	 86.9	 61.3	  31.6	  34.0	  31.6	  83.1	  83.1	  61.3	  26.9	  27.0	  22.0	 1005.8	 1006.2	 1005.7	  31.5	  32.9	  22.1	44281	 65617	 28402	Rain showers, light	  33.9	  34.0	  33.9	  0.00	  1.04	  6.02	
2018	02	17	22	01	50 	  31.6	  34.1	  31.6	  86.7	 86.6	 60.7	  31.6	  34.0	  31.6	  83.0	  82.8	  60.6	  26.9	  27.0	  21.8	 1005.8	 1006.2	 1005.7	  31.6	  32.9	  22.1	42286	 65617	 28402	Rain showers, light	  33.9	  34.0	  33.9	  0.00	  1.04	  6.02	
2018	02	17	22	01	20 	  31.6	  34.1	  31.6	  86.6	 86.6	 60.7	  31.6	  34.0	  31.6	  82.8	  82.8	  60.6	  26.9	  27.0	  21.8	 1005.8	 1006.2	 1005.7	  31.6	  32.9	  22.1	45242	 65617	 28402	Rain showers, light	  33.9	  34.0	  33.9	  0.00	  1.04	  6.02	
2018	02	17	22	00	50 	  31.6	  34.2	  31.6	  86.4	 86.2	 59.9	  31.6	  34.1	  31.6	  82.7	  82.5	  59.9	  26.8	  26.9	  21.6	 1005.8	 1006.2	 1005.7	  31.6	  32.9	  22.1	43500	 65617	 28402	Rain showers, light	  33.9	  34.0	  33.9	  0.00	  1.04	  6.02	
2018	02	17	22	00	20 	  31.6	  34.2	  31.6	  86.2	 86.2	 59.9	  31.6	  34.1	  31.6	  82.5	  82.5	  59.9	  26.8	  26.9	  21.6	 1005.8	 1006.2	 1005.7	  31.6	  32.9	  22.1	48113	 65617	 28402	Rain showers, light	  33.9	  34.0	  33.9	  0.00	  1.04	  6.02	
2018	02	17	21	59	50 	  31.6	  34.2	  31.7	  86.0	 85.9	 59.3	  31.6	  34.1	  31.7	  82.4	  82.3	  59.3	  26.8	  26.9	  21.4	 1005.8	 1006.2	 1005.7	  27.8	  32.9	  22.1	50331	 65617	 28402	Rain showers, light	  33.9	  34.0	  33.9	  0.00	  1.04	  6.02	
2018	02	17	21	59	20 	  31.7	  34.2	  31.7	  85.9	 85.9	 59.3	  31.7	  34.1	  31.7	  82.3	  82.3	  59.3	  26.7	  26.9	  21.4	 1005.8	 1006.2	 1005.7	  27.8	  32.9	  22.1	50643	 65617	 28402	Rain showers, light	  33.9	  34.0	  33.9	  0.00	  1.04	  6.02	
2018	02	17	21	58	50 	  31.7	  34.2	  31.7	  85.7	 85.5	 58.7	  31.7	  34.2	  31.7	  82.1	  82.0	  58.8	  26.7	  26.8	  21.2	 1005.8	 1006.2	 1005.7	  28.2	  32.9	  22.1	48953	 65617	 28402	Rain showers, light	  33.9	  34.0	  33.9	  0.00	  1.04	  6.02	
2018	02	17	21	58	20 	  31.7	  34.2	  31.7	  85.5	 85.5	 58.7	  31.7	  34.2	  31.7	  82.0	  82.0	  58.8	  26.7	  26.8	  21.2	 1005.8	 1006.2	 1005.7	  28.2	  32.9	  22.1	48753	 65617	 28402	Rain showers, light	  33.9	  34.0	  33.9	  0.00	  1.04	  6.02	
2018	02	17	21	57	50 	  31.7	  34.3	  31.7	  85.3	 85.1	 58.1	  31.7	  34.2	  31.8	  81.9	  81.7	  58.2	  26.6	  26.8	  21.0	 1005.8	 1006.2	 1005.7	  31.4	  32.9	  22.1	54035	 65617	 28402	Rain showers, light	  33.9	  34.0	  33.9	  0.00	  1.04	  6.02	
2018	02	17	21	57	20 	  31.7	  34.3	  31.7	  85.1	 85.1	 58.1	  31.8	  34.2	  31.8	  81.7	  81.7	  58.2	  26.6	  26.8	  21.0	 1005.8	 1006.2	 1005.7	  31.4	  32.9	  22.1	50101	 65617	 28402	Rain showers, light	  33.9	  34.0	  33.9	  0.00	  1.04	  6.02	
2018	02	17	21	56	50 	  31.8	  34.3	  31.8	  84.8	 84.6	 57.6	  31.8	  34.2	  31.8	  81.5	  81.3	  57.8	  26.5	  26.7	  20.9	 1005.8	 1006.2	 1005.7	  31.0	  32.9	  22.1	46791	 65617	 28402	Rain showers, light	  33.9	  34.0	  33.9	  0.00	  1.04	  6.02	
2018	02	17	21	56	20 	  31.8	  34.3	  31.8	  84.6	 84.6	 57.6	  31.8	  34.2	  31.8	  81.3	  81.3	  57.8	  26.5	  26.7	  20.9	 1005.7	 1006.2	 1005.7	  31.0	  32.9	  22.1	37349	 65617	 28402	Rain showers, light	  33.9	  34.0	  33.9	  0.00	  1.04	  6.02	
2018	02	17	21	55	50 	  31.8	  34.3	  31.8	  84.3	 84.0	 57.3	  31.8	  34.3	  31.9	  81.1	  80.8	  57.4	  26.4	  26.7	  20.7	 1005.7	 1006.2	 1005.7	  31.7	  32.9	  22.1	32247	 65617	 28402	Rain showers, light	  33.9	  34.0	  33.9	  0.00	  1.04	  6.02	
2018	02	17	21	55	20 	  31.8	  34.3	  31.8	  84.0	 84.0	 57.3	  31.9	  34.3	  31.9	  80.8	  80.8	  57.4	  26.4	  26.7	  20.7	 1005.7	 1006.2	 1005.7	  31.7	  32.9	  22.1	34678	 65617	 28402	Rain showers, light	  33.9	  34.0	  33.9	  0.00	  1.04	  6.02	
2018	02	17	21	54	50 	  31.9	  34.3	  31.9	  83.7	 83.3	 57.0	  31.9	  34.3	  31.9	  80.5	  80.3	  57.1	  26.3	  26.5	  20.6	 1005.7	 1006.2	 1005.7	  31.8	  32.9	  22.1	37293	 65617	 28402	Rain showers, light	  33.9	  34.0	  33.9	  0.00	  1.04	  6.02	
2018	02	17	21	54	20 	  31.9	  34.3	  31.9	  83.3	 83.3	 57.0	  31.9	  34.3	  31.9	  80.3	  80.3	  57.1	  26.2	  26.5	  20.6	 1005.7	 1006.2	 1005.7	  31.8	  32.9	  22.1	36335	 65617	 28402	Rain showers, light	  33.9	  34.0	  33.9	  0.00	  1.04	  6.02	
2018	02	17	21	53	50 	  31.9	  34.3	  32.0	  83.0	 82.6	 56.8	  32.0	  34.3	  32.0	  80.0	  79.6	  56.9	  26.2	  26.4	  20.5	 1005.7	 1006.2	 1005.7	  31.9	  32.9	  22.1	36538	 65617	 28402	Rain showers, light	  33.9	  34.0	  33.9	  0.00	  1.04	  6.02	
2018	02	17	21	53	20 	  32.0	  34.3	  32.0	  82.6	 82.6	 56.8	  32.0	  34.3	  32.0	  79.6	  79.6	  56.9	  26.1	  26.4	  20.5	 1005.7	 1006.2	 1005.7	  31.9	  32.9	  22.1	43490	 65617	 28402	Rain showers, light	  33.9	  34.0	  33.9	  0.00	  1.04	  6.02	
2018	02	17	21	52	50 	  32.0	  34.3	  32.0	  82.3	 82.0	 56.6	  32.0	  34.3	  32.1	  79.3	  79.0	  56.8	  26.1	  26.3	  20.5	 1005.7	 1006.2	 1005.7	  29.8	  32.9	  22.1	38366	 65617	 28402	Rain showers, light	  33.9	  34.0	  33.9	  0.00	  1.04	  6.02	
2018	02	17	21	52	20 	  32.0	  34.3	  32.0	  82.0	 82.0	 56.6	  32.1	  34.3	  32.1	  79.0	  79.0	  56.8	  26.0	  26.3	  20.5	 1005.8	 1006.2	 1005.7	  29.8	  32.9	  22.1	35977	 65617	 28402	Rain showers, light	  33.9	  34.0	  33.9	  0.00	  1.04	  6.02	
2018	02	17	21	51	50 	  32.1	  34.3	  32.1	  81.6	 81.3	 56.5	  32.1	  34.3	  32.1	  78.7	  78.4	  56.8	  25.9	  26.2	  20.5	 1005.8	 1006.3	 1005.8	  27.7	  32.9	  22.1	33635	 65617	 28402	Rain showers, light	  33.9	  34.0	  33.9	  0.00	  1.04	  6.02	
2018	02	17	21	51	20 	  32.1	  34.3	  32.1	  81.3	 81.3	 56.5	  32.1	  34.3	  32.1	  78.4	  78.4	  56.8	  25.9	  26.2	  20.5	 1005.8	 1006.3	 1005.8	  27.7	  32.9	  22.1	28402	 65617	 28402	Rain showers, light	  33.9	  34.0	  33.9	  0.00	  1.04	  6.02	
2018	02	17	21	50	50 	  32.1	  34.3	  32.2	  81.0	 80.6	 56.4	  32.2	  34.3	  32.2	  78.1	  77.9	  56.8	  25.8	  26.1	  20.5	 1005.8	 1006.3	 1005.8	  28.7	  32.9	  22.1	34015	 65617	 31394	Rain showers, light	  33.9	  34.0	  33.9	  0.00	  1.04	  6.02	
2018	02	17	21	50	20 	  32.2	  34.3	  32.2	  80.6	 80.6	 56.4	  32.2	  34.3	  32.2	  77.9	  77.9	  56.8	  25.8	  26.1	  20.5	 1005.8	 1006.3	 1005.8	  28.7	  32.9	  22.1	36243	 65617	 31394	Rain showers, light	  33.9	  34.0	  33.9	  0.00	  1.04	  6.02	
2018	02	17	21	49	50 	  32.2	  34.3	  32.2	  80.3	 79.9	 56.3	  32.2	  34.3	  32.3	  77.6	  77.3	  56.7	  25.7	  25.9	  20.4	 1005.8	 1006.3	 1005.8	  29.2	  32.9	  22.1	31394	 65617	 33219	Rain showers, light	  33.9	  34.0	  33.9	  0.00	  1.04	  6.02	
2018	02	17	21	49	20 	  32.2	  34.3	  32.2	  79.9	 79.9	 56.3	  32.3	  34.3	  32.3	  77.3	  77.3	  56.7	  25.6	  25.9	  20.4	 1005.8	 1006.3	 1005.8	  29.2	  32.9	  22.1	33218	 65617	 33219	Rain showers, light	  33.9	  34.0	  33.9	  0.00	  1.04	  6.02	
2018	02	17	21	48	50 	  32.3	  34.4	  32.3	  79.6	 79.2	 56.2	  32.3	  34.3	  32.3	  77.0	  76.7	  56.5	  25.6	  25.8	  20.4	 1005.8	 1006.3	 1005.8	  32.1	  33.0	  22.1	39130	 65617	 65617	Rain showers, light	  33.9	  34.0	  33.9	  0.00	  1.04	  6.02	
2018	02	17	21	48	20 	  32.3	  34.4	  32.3	  79.2	 79.2	 56.2	  32.3	  34.3	  32.3	  76.7	  76.7	  56.5	  25.5	  25.8	  20.4	 1005.8	 1006.3	 1005.8	  32.1	  33.0	  22.1	65616	 65617	 65617	Rain showers, light	  33.9	  34.0	  33.9	  0.00	  1.04	  6.02	
2018	02	17	21	47	50 	  32.3	  34.4	  32.4	  78.9	 78.5	 56.0	  32.4	  34.3	  32.4	  76.4	  76.2	  56.4	  25.5	  25.7	  20.4	 1005.9	 1006.3	 1005.8	  30.4	  33.0	  22.1	65616	 65617	 65617	Rain showers, light	  33.9	  34.0	  33.9	  0.00	  1.04	  6.02	
2018	02	17	21	47	20 	  32.4	  34.4	  32.4	  78.5	 78.5	 56.0	  32.4	  34.3	  32.4	  76.2	  76.2	  56.4	  25.4	  25.7	  20.4	 1005.9	 1006.3	 1005.8	  30.4	  33.0	  22.1	65616	 65617	 65617	Rain showers, light	  33.9	  34.0	  33.9	  0.00	  1.04	  6.02	
2018	02	17	21	46	50 	  32.4	  34.4	  32.4	  78.1	 77.8	 55.9	  32.4	  34.3	  32.5	  75.9	  75.6	  56.3	  25.3	  25.6	  20.3	 1005.9	 1006.3	 1005.8	  27.8	  33.0	  22.1	65616	 65617	 65617	Rain showers, light	  33.9	  34.0	  33.9	  0.00	  1.04	  6.02	
2018	02	17	21	46	20 	  32.4	  34.4	  32.4	  77.8	 77.8	 55.9	  32.5	  34.3	  32.5	  75.6	  75.6	  56.3	  25.3	  25.6	  20.3	 1005.9	 1006.3	 1005.8	  27.8	  33.0	  22.1	65616	 65617	 65617	Rain showers, light	  33.9	  34.0	  33.9	  0.00	  1.04	  6.02	
2018	02	17	21	45	50 	  32.5	  34.4	  32.5	  77.4	 77.1	 55.8	  32.5	  34.3	  32.5	  75.3	  75.0	  56.1	  25.2	  25.5	  20.3	 1005.9	 1006.3	 1005.8	  27.8	  33.7	  22.1	65616	 65617	 65617	Rain showers, light	  33.9	  34.0	  33.9	  0.00	  1.04	  6.02	
2018	02	17	21	45	20 	  32.5	  34.4	  32.5	  77.1	 77.1	 55.8	  32.5	  34.3	  32.5	  75.0	  75.0	  56.1	  25.2	  25.5	  20.3	 1005.8	 1006.3	 1005.8	  27.8	  33.7	  22.1	65616	 65617	 65617	Rain showers, light	  33.9	  34.0	  33.9	  0.00	  1.04	  6.02	
2018	02	17	21	44	50 	  32.6	  34.4	  32.6	  76.7	 76.4	 55.7	  32.6	  34.3	  32.6	  74.7	  74.4	  56.0	  25.1	  25.3	  20.2	 1005.8	 1006.3	 1005.8	  25.1	  33.7	  22.1	65616	 65617	 65617	Rain showers, light	  33.9	  34.0	  33.9	  0.00	  1.04	  6.02	
2018	02	17	21	44	20 	  32.6	  34.4	  32.6	  76.4	 76.4	 55.7	  32.6	  34.3	  32.6	  74.4	  74.4	  56.0	  25.0	  25.3	  20.2	 1005.8	 1006.3	 1005.8	  25.1	  33.7	  22.1	65616	 65617	 65617	Rain showers, light	  33.9	  34.0	  33.9	  0.00	  1.04	  6.02	
2018	02	17	21	43	50 	  32.6	  34.4	  32.7	  76.0	 75.7	 55.6	  32.6	  34.3	  32.7	  74.1	  73.8	  55.9	  25.0	  25.2	  20.2	 1005.8	 1006.3	 1005.8	  25.1	  33.7	  22.1	65616	 65617	 65617	Rain showers, light	  33.9	  34.0	  33.9	  0.00	  1.04	  6.02	
2018	02	17	21	43	20 	  32.7	  34.4	  32.7	  75.7	 75.7	 55.6	  32.7	  34.3	  32.7	  73.8	  73.8	  55.9	  24.9	  25.2	  20.2	 1005.8	 1006.3	 1005.8	  25.1	  33.7	  22.1	65616	 65617	 65617	Rain showers, light	  33.9	  34.0	  33.9	  0.00	  1.04	  6.02	
2018	02	17	21	42	50 	  32.7	  34.4	  32.7	  75.3	 75.0	 55.5	  32.7	  34.3	  32.7	  73.5	  73.2	  55.7	  24.8	  25.1	  20.1	 1005.8	 1006.3	 1005.8	  26.9	  33.7	  22.1	65616	 65617	 65617	Rain showers, light	  33.9	  34.0	  33.9	  0.00	  1.04	  6.02	
2018	02	17	21	42	20 	  32.7	  34.4	  32.7	  75.0	 75.0	 55.5	  32.7	  34.3	  32.7	  73.2	  73.2	  55.7	  24.8	  25.1	  20.1	 1005.8	 1006.3	 1005.8	  26.9	  33.7	  22.1	65616	 65617	 65617	Rain showers, light	  33.9	  34.0	  33.9	  0.00	  1.04	  6.02	
2018	02	17	21	41	50 	  32.8	  34.4	  32.8	  74.7	 74.4	 55.4	  32.8	  34.4	  32.8	  72.9	  72.7	  55.7	  24.7	  25.0	  20.1	 1005.8	 1006.4	 1005.8	  26.6	  33.7	  22.1	65616	 65617	 65617	Rain showers, light	  33.9	  34.0	  33.9	  0.00	  1.04	  6.02	
2018	02	17	21	41	20 	  32.8	  34.4	  32.8	  74.4	 74.4	 55.4	  32.8	  34.4	  32.8	  72.7	  72.7	  55.7	  24.7	  25.0	  20.1	 1005.8	 1006.4	 1005.8	  26.6	  33.7	  22.1	65616	 65617	 65617	Rain showers, light	  33.9	  34.0	  33.9	  0.00	  1.04	  6.02	
2018	02	17	21	40	50 	  32.8	  34.5	  32.9	  74.1	 73.8	 55.3	  32.8	  34.4	  32.8	  72.4	  72.1	  55.6	  24.6	  24.8	  20.1	 1005.9	 1006.4	 1005.8	  28.0	  34.3	  22.1	65616	 65617	 65617	Rain showers, light	  33.9	  34.0	  33.9	  0.00	  1.04	  6.02	
2018	02	17	21	40	20 	  32.9	  34.5	  32.9	  73.8	 73.8	 55.3	  32.8	  34.4	  32.8	  72.1	  72.1	  55.6	  24.6	  24.8	  20.1	 1005.8	 1006.4	 1005.8	  28.0	  34.3	  22.1	65616	 65617	 65617	Rain showers, light	  33.9	  34.0	  33.9	  0.00	  1.04	  6.02	
2018	02	17	21	39	50 	  32.9	  34.5	  32.9	  73.5	 73.2	 55.3	  32.9	  34.4	  32.9	  71.9	  71.7	  55.5	  24.5	  24.7	  20.1	 1005.9	 1006.4	 1005.8	  32.8	  34.3	  22.1	65616	 65617	 65617	Rain showers, light	  33.9	  34.0	  33.9	  0.00	  1.04	  6.02	
2018	02	17	21	39	20 	  32.9	  34.5	  32.9	  73.2	 73.2	 55.3	  32.9	  34.4	  32.9	  71.7	  71.7	  55.5	  24.5	  24.7	  20.1	 1005.9	 1006.4	 1005.8	  32.8	  34.3	  22.1	65616	 65617	 65617	Rain showers, light	  33.9	  34.0	  33.9	  0.00	  1.04	  6.02	
2018	02	17	21	38	50 	  32.9	  34.5	  32.9	  73.0	 72.8	 55.2	  32.9	  34.4	  32.9	  71.5	  71.2	  55.4	  24.4	  24.6	  20.1	 1005.9	 1006.4	 1005.8	  32.8	  34.3	  22.1	65616	 65617	 65617	Rain showers, light	  33.9	  34.0	  33.9	  0.00	  1.04	  6.02	
2018	02	17	21	38	20 	  32.9	  34.5	  32.9	  72.8	 72.8	 55.2	  32.9	  34.4	  32.9	  71.2	  71.2	  55.4	  24.4	  24.6	  20.1	 1005.9	 1006.4	 1005.8	  32.8	  34.3	  22.1	65616	 65617	 65617	Rain showers, light	  33.9	  34.0	  33.9	  0.00	  1.04	  6.02	
2018	02	17	21	37	50 	  33.0	  34.5	  33.0	  72.5	 72.3	 55.1	  32.9	  34.4	  33.0	  71.0	  70.8	  55.4	  24.4	  24.5	  20.0	 1005.9	 1006.4	 1005.8	  32.9	  34.3	  22.1	65616	 65617	 65617	Rain showers, light	  33.9	  34.0	  33.9	  0.00	  1.04	  6.02	
2018	02	17	21	37	20 	  33.0	  34.5	  33.0	  72.3	 72.3	 55.1	  33.0	  34.4	  33.0	  70.8	  70.8	  55.4	  24.3	  24.5	  20.0	 1005.9	 1006.4	 1005.8	  32.9	  34.3	  22.1	65616	 65617	 65617	Rain showers, light	  33.9	  34.0	  33.9	  0.00	  1.04	  6.02	
2018	02	17	21	36	50 	  33.0	  34.5	  33.0	  72.1	 71.9	 55.0	  33.0	  34.4	  33.0	  70.6	  70.4	  55.3	  24.3	  24.4	  20.0	 1005.9	 1006.4	 1005.8	  26.9	  34.3	  22.1	65616	 65617	 65617	Rain showers, light	  33.9	  34.0	  33.9	  0.00	  1.04	  6.02	
2018	02	17	21	36	20 	  33.0	  34.5	  33.0	  71.9	 71.9	 55.0	  33.0	  34.4	  33.0	  70.4	  70.4	  55.3	  24.2	  24.4	  20.0	 1005.9	 1006.4	 1005.8	  26.9	  34.3	  22.1	65616	 65617	 65617	Rain showers, light	  33.9	  34.0	  33.9	  0.00	  1.04	  6.02	
2018	02	17	21	35	50 	  33.1	  34.5	  33.1	  71.7	 71.4	 54.9	  33.0	  34.4	  33.1	  70.3	  70.1	  55.3	  24.2	  24.4	  20.0	 1005.8	 1006.5	 1005.8	  26.1	  34.3	  22.1	65616	 65617	 65617	Rain showers, light	  33.9	  34.0	  33.9	  0.00	  1.04	  6.02	
2018	02	17	21	35	20 	  33.1	  34.5	  33.1	  71.4	 71.4	 54.9	  33.1	  34.4	  33.1	  70.1	  70.1	  55.3	  24.2	  24.4	  20.0	 1005.9	 1006.5	 1005.8	  26.1	  34.3	  22.1	65616	 65617	 65617	Rain showers, light	  33.9	  34.0	  33.9	  0.00	  1.04	  6.02	
2018	02	17	21	34	50 	  33.1	  34.5	  33.1	  71.2	 71.0	 54.8	  33.1	  34.4	  33.1	  69.9	  69.7	  55.2	  24.1	  24.3	  20.0	 1005.9	 1006.5	 1005.8	  26.0	  34.3	  22.1	65616	 65617	 65617	Rain showers, light	  33.9	  34.0	  33.9	  0.00	  1.04	  6.02	
2018	02	17	21	34	20 	  33.1	  34.5	  33.1	  71.0	 71.0	 54.8	  33.1	  34.4	  33.1	  69.7	  69.7	  55.2	  24.1	  24.3	  20.0	 1005.9	 1006.5	 1005.8	  26.0	  34.3	  22.1	65616	 65617	 65617	Rain showers, light	  33.9	  34.0	  33.9	  0.00	  1.04	  6.02	
2018	02	17	21	33	50 	  33.1	  34.5	  33.2	  70.8	 70.6	 54.7	  33.1	  34.4	  33.1	  69.6	  69.4	  55.2	  24.1	  24.2	  20.0	 1005.9	 1006.5	 1005.9	  26.3	  34.3	  22.1	65616	 65617	 65617	Rain showers, light	  33.9	  34.0	  33.9	  0.00	  1.04	  6.02	
2018	02	17	21	33	20 	  33.2	  34.5	  33.2	  70.6	 70.6	 54.7	  33.1	  34.4	  33.1	  69.4	  69.4	  55.2	  24.0	  24.2	  20.0	 1006.0	 1006.5	 1005.9	  26.3	  34.3	  22.1	65616	 65617	 65617	Rain showers, light	  33.9	  34.0	  33.9	  0.00	  1.04	  6.02	
2018	02	17	21	32	50 	  33.2	  34.5	  33.2	  70.5	 70.3	 54.7	  33.2	  34.4	  33.2	  69.2	  69.1	  55.2	  24.0	  24.1	  20.0	 1006.0	 1006.5	 1006.0	  30.6	  34.3	  22.1	65616	 65617	 65617	Rain showers, light	  33.9	  34.0	  33.9	  0.00	  1.04	  6.02	
2018	02	17	21	32	20 	  33.2	  34.5	  33.2	  70.3	 70.3	 54.7	  33.2	  34.4	  33.2	  69.1	  69.1	  55.2	  23.9	  24.1	  20.0	 1006.0	 1006.5	 1006.0	  30.6	  34.3	  22.1	65616	 65617	 65617	Rain showers, light	  33.9	  34.0	  33.9	  0.00	  1.04	  6.02	
2018	02	17	21	31	50 	  33.2	  34.5	  33.2	  70.1	 69.9	 54.6	  33.2	  34.4	  33.2	  68.9	  68.8	  55.2	  23.9	  24.0	  19.9	 1006.0	 1006.5	 1006.0	  29.7	  34.3	  22.1	65616	 65617	 65617	Rain showers, light	  33.9	  34.0	  33.9	  0.00	  1.04	  6.02	
2018	02	17	21	31	20 	  33.2	  34.5	  33.2	  69.9	 69.9	 54.6	  33.2	  34.4	  33.2	  68.8	  68.8	  55.2	  23.9	  24.0	  19.9	 1006.1	 1006.5	 1006.0	  29.7	  34.3	  22.1	65616	 65617	 65617	Rain showers, light	  33.9	  34.0	  33.9	  0.00	  1.04	  6.02	
2018	02	17	21	30	50 	  33.2	  34.5	  33.3	  69.8	 69.6	 54.5	  33.2	  34.4	  33.2	  68.6	  68.5	  55.0	  23.8	  24.0	  19.9	 1006.1	 1006.5	 1006.0	  26.6	  34.3	  22.1	65616	 65617	 65617	Rain showers, light	  33.9	  34.0	  33.9	  0.00	  1.04	  6.02	
2018	02	17	21	30	20 	  33.3	  34.5	  33.3	  69.6	 69.6	 54.5	  33.2	  34.4	  33.2	  68.5	  68.5	  55.0	  23.8	  24.0	  19.9	 1006.1	 1006.5	 1006.0	  26.6	  34.3	  22.1	65616	 65617	 65617	Rain showers, light	  33.9	  34.0	  33.9	  0.00	  1.04	  6.02	
2018	02	17	21	29	50 	  33.3	  34.5	  33.3	  69.5	 69.3	 54.4	  33.3	  34.4	  33.3	  68.3	  68.2	  54.9	  23.8	  23.9	  19.9	 1006.1	 1006.5	 1006.0	  27.0	  34.3	  22.1	65616	 65617	 65617	Rain showers, light	  33.9	  34.0	  33.9	  0.00	  1.04	  6.02	
2018	02	17	21	29	20 	  33.3	  34.5	  33.3	  69.3	 69.3	 54.4	  33.3	  34.4	  33.3	  68.2	  68.2	  54.9	  23.7	  23.9	  19.9	 1006.1	 1006.5	 1006.0	  27.0	  34.3	  22.1	65616	 65617	 65617	Rain showers, light	  33.9	  34.0	  33.9	  0.00	  1.04	  6.02	
2018	02	17	21	28	50 	  33.3	  34.6	  33.3	  69.1	 69.0	 54.3	  33.3	  34.5	  33.3	  68.0	  67.9	  54.7	  23.7	  23.8	  19.8	 1006.1	 1006.5	 1006.0	  27.7	  34.3	  22.1	65616	 65617	 65617	Rain showers, light	  33.9	  34.0	  33.9	  0.00	  1.04	  6.02	
2018	02	17	21	28	20 	  33.3	  34.6	  33.3	  69.0	 69.0	 54.3	  33.3	  34.5	  33.3	  67.9	  67.9	  54.7	  23.7	  23.8	  19.8	 1006.1	 1006.5	 1006.0	  27.7	  34.3	  22.1	65616	 65617	 65617	Rain showers, light	  33.9	  34.0	  33.9	  0.00	  1.04	  6.02	
2018	02	17	21	27	50 	  33.4	  34.6	  33.4	  68.8	 68.6	 54.1	  33.3	  34.5	  33.4	  67.7	  67.5	  54.5	  23.6	  23.8	  19.7	 1006.1	 1006.5	 1006.0	  27.1	  34.3	  22.1	65616	 65617	 65617	Rain showers, light	  33.9	  34.0	  33.9	  0.00	  1.04	  6.02	
2018	02	17	21	27	20 	  33.4	  34.6	  33.4	  68.6	 68.6	 54.1	  33.4	  34.5	  33.4	  67.5	  67.5	  54.5	  23.6	  23.8	  19.7	 1006.1	 1006.5	 1006.0	  27.1	  34.3	  22.1	65616	 65617	 65617	Rain showers, light	  33.9	  34.0	  33.9	  0.00	  1.04	  6.02	
2018	02	17	21	26	50 	  33.4	  34.6	  33.4	  68.5	 68.3	 54.0	  33.4	  34.5	  33.4	  67.4	  67.3	  54.3	  23.6	  23.7	  19.7	 1006.1	 1006.5	 1006.0	  29.9	  34.3	  22.1	65616	 65617	 65617	Rain showers, light	  33.9	  34.0	  33.9	  0.00	  1.04	  6.02	
2018	02	17	21	26	20 	  33.4	  34.6	  33.4	  68.3	 68.3	 54.0	  33.4	  34.5	  33.4	  67.3	  67.3	  54.3	  23.5	  23.7	  19.7	 1006.1	 1006.5	 1006.0	  29.9	  34.3	  22.1	65616	 65617	 65617	Rain showers, light	  33.9	  34.0	  33.9	  0.00	  1.04	  6.02	
2018	02	17	21	25	50 	  33.4	  34.6	  33.4	  68.2	 68.0	 54.0	  33.4	  34.5	  33.4	  67.1	  67.0	  54.3	  23.5	  23.6	  19.7	 1006.1	 1006.6	 1006.0	  29.9	  34.3	  22.1	65616	 65617	 65617	Rain showers, light	  33.9	  34.0	  33.9	  0.00	  1.04	  6.02	
2018	02	17	21	25	20 	  33.4	  34.6	  33.4	  68.0	 68.0	 54.0	  33.4	  34.5	  33.4	  67.0	  67.0	  54.3	  23.5	  23.6	  19.7	 1006.1	 1006.6	 1006.0	  29.9	  34.3	  22.1	65616	 65617	 65617	Rain showers, light	  33.9	  34.0	  33.9	  0.00	  1.04	  6.02	
2018	02	17	21	24	50 	  33.4	  34.6	  33.5	  67.8	 67.7	 54.0	  33.4	  34.5	  33.4	  66.9	  66.7	  54.3	  23.4	  23.6	  19.7	 1006.1	 1006.6	 1006.0	  24.9	  34.3	  22.1	65616	 65617	 65617	Rain showers, light	  33.9	  34.0	  33.9	  0.00	  1.04	  6.02	
2018	02	17	21	24	20 	  33.5	  34.6	  33.5	  67.7	 67.7	 54.0	  33.4	  34.5	  33.4	  66.7	  66.7	  54.3	  23.4	  23.6	  19.7	 1006.1	 1006.6	 1006.0	  24.9	  34.3	  22.1	65616	 65617	 65617	Rain showers, light	  33.9	  34.0	  33.9	  0.00	  1.04	  6.02	
2018	02	17	21	23	50 	  33.5	  34.6	  33.5	  67.5	 67.4	 53.9	  33.4	  34.5	  33.4	  66.7	  66.6	  54.3	  23.3	  23.5	  19.7	 1006.1	 1006.6	 1006.0	  24.3	  34.3	  22.1	65616	 65617	 65617	Rain showers, light	  33.9	  34.0	  33.9	  0.00	  1.04	  6.02	
2018	02	17	21	23	20 	  33.5	  34.6	  33.5	  67.4	 67.4	 53.9	  33.4	  34.5	  33.4	  66.6	  66.6	  54.3	  23.3	  23.5	  19.7	 1006.1	 1006.6	 1006.0	  24.3	  34.3	  22.1	65616	 65617	 65617	Rain showers, light	  33.9	  34.0	  33.9	  0.00	  1.04	  6.02	
2018	02	17	21	22	50 	  33.5	  34.6	  33.5	  67.2	 67.1	 53.8	  33.5	  34.5	  33.5	  66.5	  66.3	  54.3	  23.2	  23.4	  19.7	 1006.1	 1006.6	 1006.0	  25.1	  34.3	  22.1	65616	 65617	 65617	Rain showers, light	  33.9	  34.0	  33.9	  0.00	  1.04	  6.02	
2018	02	17	21	22	20 	  33.5	  34.6	  33.5	  67.1	 67.1	 53.8	  33.5	  34.5	  33.5	  66.3	  66.3	  54.3	  23.2	  23.4	  19.7	 1006.1	 1006.6	 1006.0	  25.1	  34.3	  22.1	65616	 65617	 65617	Rain showers, light	  33.9	  34.0	  33.9	  0.00	  1.04	  6.02	
2018	02	17	21	21	50 	  33.5	  34.6	  33.5	  66.9	 66.7	 53.7	  33.5	  34.5	  33.5	  66.2	  66.1	  54.2	  23.1	  23.4	  19.6	 1006.1	 1006.6	 1006.0	  26.5	  34.3	  22.1	65616	 65617	 65617	Rain showers, light	  33.9	  34.0	  33.9	  0.00	  1.04	  6.02	
2018	02	17	21	21	20 	  33.5	  34.6	  33.5	  66.7	 66.7	 53.7	  33.5	  34.5	  33.5	  66.1	  66.1	  54.2	  23.1	  23.4	  19.6	 1006.1	 1006.6	 1006.0	  26.5	  34.3	  22.1	65616	 65617	 65617	Rain showers, light	  33.9	  34.0	  33.9	  0.00	  1.04	  6.02	
2018	02	17	21	20	50 	  33.6	  34.6	  33.6	  66.5	 66.3	 53.5	  33.5	  34.6	  33.5	  65.9	  65.7	  54.0	  23.1	  23.3	  19.6	 1006.1	 1006.6	 1006.0	  28.2	  34.3	  22.1	65616	 65617	 65617	Rain showers, light	  33.9	  34.0	  33.9	  0.00	  1.04	  6.02	
2018	02	17	21	20	20 	  33.6	  34.6	  33.6	  66.3	 66.3	 53.5	  33.5	  34.6	  33.5	  65.7	  65.7	  54.0	  23.0	  23.3	  19.6	 1006.1	 1006.6	 1006.0	  28.2	  34.3	  22.1	65616	 65617	 65617	Rain showers, light	  33.9	  34.0	  33.9	  0.00	  1.04	  6.02	
2018	02	17	21	19	50 	  33.6	  34.7	  33.6	  66.1	 65.9	 53.3	  33.5	  34.6	  33.6	  65.5	  65.3	  53.8	  23.0	  23.1	  19.5	 1006.1	 1006.6	 1006.0	  25.7	  34.3	  22.1	65616	 65617	 65617	Rain showers, light	  33.9	  34.0	  33.9	  0.00	  1.04	  6.02	
2018	02	17	21	19	20 	  33.6	  34.7	  33.6	  65.9	 65.9	 53.3	  33.6	  34.6	  33.6	  65.3	  65.3	  53.8	  23.0	  23.1	  19.5	 1006.1	 1006.6	 1006.0	  25.7	  34.3	  22.1	65616	 65617	 65617	Rain showers, light	  33.9	  34.0	  33.9	  0.00	  1.04	  6.02	
2018	02	17	21	18	50 	  33.6	  34.7	  33.6	  65.7	 65.5	 53.2	  33.6	  34.6	  33.6	  65.1	  64.9	  53.6	  22.9	  23.0	  19.5	 1006.1	 1006.6	 1006.0	  28.2	  34.3	  22.1	65616	 65617	 65617	Rain showers, light	  33.9	  34.0	  33.9	  0.00	  1.04	  6.02	
2018	02	17	21	18	20 	  33.6	  34.7	  33.6	  65.5	 65.5	 53.2	  33.6	  34.6	  33.6	  64.9	  64.9	  53.6	  22.9	  23.0	  19.5	 1006.1	 1006.6	 1006.0	  28.2	  34.3	  22.1	65616	 65617	 65617	Rain showers, light	  33.9	  34.0	  33.9	  0.00	  1.04	  6.02	
2018	02	17	21	17	50 	  33.6	  34.7	  33.6	  65.4	 65.3	 53.0	  33.6	  34.6	  33.6	  64.7	  64.6	  53.4	  22.9	  23.0	  19.4	 1006.1	 1006.6	 1006.0	  31.0	  34.3	  22.1	65616	 65617	 65617	Rain showers, light	  33.9	  34.0	  33.9	  0.00	  1.04	  6.02	
2018	02	17	21	17	20 	  33.6	  34.7	  33.6	  65.3	 65.3	 53.0	  33.6	  34.6	  33.6	  64.6	  64.6	  53.4	  22.9	  23.0	  19.4	 1006.1	 1006.6	 1006.0	  31.0	  34.3	  22.1	65616	 65617	 65617	Rain showers, light	  33.9	  34.0	  33.9	  0.00	  1.04	  6.02	
2018	02	17	21	16	50 	  33.7	  34.7	  33.7	  65.2	 65.1	 52.9	  33.6	  34.7	  33.6	  64.5	  64.5	  53.3	  22.9	  22.9	  19.4	 1006.1	 1006.6	 1006.0	  30.0	  34.3	  22.1	65616	 65617	 65617	Rain showers, light	  33.9	  34.0	  33.9	  0.00	  1.04	  6.02	
2018	02	17	21	16	20 	  33.7	  34.7	  33.7	  65.1	 65.1	 52.9	  33.6	  34.7	  33.6	  64.5	  64.5	  53.3	  22.9	  22.9	  19.4	 1006.1	 1006.6	 1006.0	  30.0	  34.3	  22.1	65616	 65617	 65617	Rain showers, light	  33.9	  34.0	  33.9	  0.00	  1.04	  6.02	
2018	02	17	21	15	50 	  33.7	  34.7	  33.7	  65.1	 65.1	 52.8	  33.6	  34.7	  33.6	  64.4	  64.4	  53.2	  22.9	  22.9	  19.3	 1006.1	 1006.6	 1006.0	  28.4	  34.3	  22.1	65616	 65617	 65617	Rain showers, light	  33.9	  34.0	  33.9	  0.00	  1.04	  6.02	
2018	02	17	21	15	20 	  33.7	  34.7	  33.7	  65.1	 65.1	 52.8	  33.6	  34.7	  33.6	  64.4	  64.4	  53.2	  22.9	  22.9	  19.3	 1006.1	 1006.6	 1006.0	  28.4	  34.3	  22.1	65616	 65617	 65617	Rain showers, light	  33.9	  34.0	  33.9	  0.00	  1.04	  6.02	
2018	02	17	21	14	50 	  33.7	  34.7	  33.7	  65.0	 65.0	 52.7	  33.7	  34.7	  33.7	  64.4	  64.4	  53.2	  22.9	  22.9	  19.3	 1006.1	 1006.6	 1006.0	  24.7	  34.3	  22.1	65616	 65617	 65617	Rain showers, light	  33.9	  34.0	  33.9	  0.00	  1.04	  6.02	
2018	02	17	21	14	20 	  33.7	  34.7	  33.7	  65.0	 65.0	 52.7	  33.7	  34.7	  33.7	  64.4	  64.4	  53.2	  22.9	  22.9	  19.3	 1006.1	 1006.6	 1006.0	  24.7	  34.3	  22.1	65616	 65617	 65617	Rain showers, light	  33.9	  34.0	  33.9	  0.00	  1.04	  6.02	
2018	02	17	21	13	50 	  33.7	  34.7	  33.7	  65.0	 64.9	 52.7	  33.7	  34.7	  33.7	  64.4	  64.4	  53.2	  22.9	  22.9	  19.3	 1006.1	 1006.6	 1006.0	  26.5	  34.3	  22.1	65616	 65617	 65617	Rain showers, light	  33.9	  34.0	  33.9	  0.00	  1.04	  6.02	
2018	02	17	21	13	20 	  33.7	  34.7	  33.7	  64.9	 64.9	 52.7	  33.7	  34.7	  33.7	  64.4	  64.4	  53.2	  22.9	  22.9	  19.3	 1006.1	 1006.6	 1006.0	  26.5	  34.3	  22.1	65616	 65617	 65617	Rain, light	  33.9	  34.0	  33.9	  0.00	  1.04	  6.02	
2018	02	17	21	12	50 	  33.7	  34.7	  33.7	  64.9	 64.8	 52.7	  33.7	  34.7	  33.7	  64.4	  64.4	  53.2	  22.9	  22.9	  19.3	 1006.0	 1006.6	 1006.0	  28.0	  34.3	  22.1	65616	 65617	 65617	Rain, light	  33.9	  34.0	  33.9	  0.00	  1.04	  6.02	
2018	02	17	21	12	20 	  33.7	  34.7	  33.7	  64.8	 64.8	 52.7	  33.7	  34.7	  33.7	  64.4	  64.4	  53.2	  22.8	  22.9	  19.3	 1006.1	 1006.6	 1006.0	  28.0	  34.3	  22.1	65616	 65617	 65617	Rain, light	  33.9	  34.0	  33.9	  0.00	  1.04	  6.02	
2018	02	17	21	11	50 	  33.7	  34.7	  33.7	  64.7	 64.7	 52.7	  33.7	  34.7	  33.7	  64.3	  64.3	  53.2	  22.8	  22.9	  19.3	 1006.0	 1006.6	 1006.0	  25.7	  34.3	  22.1	65616	 65617	 65617	Rain, light	  33.9	  34.0	  33.9	  0.00	  1.04	  6.02	
2018	02	17	21	11	20 	  33.7	  34.7	  33.7	  64.7	 64.7	 52.7	  33.7	  34.7	  33.7	  64.3	  64.3	  53.2	  22.8	  22.9	  19.3	 1006.1	 1006.6	 1006.0	  25.7	  34.3	  22.1	65616	 65617	 65617	Rain, light	  33.9	  34.0	  33.9	  0.00	  1.04	  6.02	
2018	02	17	21	10	50 	  33.8	  34.7	  33.8	  64.6	 64.5	 52.7	  33.7	  34.7	  33.7	  64.3	  64.2	  53.2	  22.7	  22.9	  19.3	 1006.1	 1006.6	 1006.0	  26.5	  34.3	  22.1	65616	 65617	 65617	Rain, light	  33.9	  34.0	  33.9	  0.00	  1.04	  6.02	
2018	02	17	21	10	20 	  33.8	  34.7	  33.8	  64.5	 64.5	 52.7	  33.7	  34.7	  33.7	  64.2	  64.2	  53.2	  22.7	  22.9	  19.3	 1006.1	 1006.6	 1006.0	  26.5	  34.3	  22.1	65616	 65617	 65617	Rain, light	  33.9	  34.0	  33.9	  0.00	  1.04	  6.02	
2018	02	17	21	09	50 	  33.8	  34.7	  33.8	  64.4	 64.3	 52.7	  33.7	  34.7	  33.7	  64.1	  64.0	  53.2	  22.7	  22.8	  19.3	 1006.1	 1006.6	 1006.0	  26.4	  34.3	  22.1	65616	 65617	 65617	Rain, light	  33.9	  34.0	  33.9	  0.00	  1.04	  6.02	
2018	02	17	21	09	20 	  33.8	  34.7	  33.8	  64.3	 64.3	 52.7	  33.7	  34.7	  33.7	  64.0	  64.0	  53.2	  22.6	  22.8	  19.3	 1006.0	 1006.6	 1006.0	  26.4	  34.3	  22.1	65616	 65617	 65617	Rain, light	  33.9	  34.0	  33.9	  0.00	  1.04	  6.02	
2018	02	17	21	08	50 	  33.8	  34.7	  33.8	  64.2	 64.0	 52.7	  33.7	  34.7	  33.7	  63.9	  63.8	  53.2	  22.6	  22.8	  19.3	 1006.1	 1006.6	 1006.0	  24.8	  34.3	  22.1	65616	 65617	 65617	Rain, light	  33.9	  34.0	  33.9	  0.00	  1.04	  6.02	
2018	02	17	21	08	20 	  33.8	  34.7	  33.8	  64.0	 64.0	 52.7	  33.7	  34.7	  33.7	  63.8	  63.8	  53.2	  22.5	  22.8	  19.3	 1006.1	 1006.6	 1006.0	  24.8	  34.3	  22.1	65616	 65617	 65617	Rain, light	  33.9	  34.0	  33.9	  0.00	  1.04	  6.02	
2018	02	17	21	07	50 	  33.8	  34.7	  33.8	  63.9	 63.7	 52.7	  33.8	  34.7	  33.8	  63.6	  63.5	  53.1	  22.5	  22.7	  19.2	 1006.1	 1006.6	 1006.0	  25.9	  34.3	  22.1	65616	 65617	 65617	Rain, light	  33.9	  34.0	  33.9	  0.00	  1.04	  6.02	
2018	02	17	21	07	20 	  33.8	  34.7	  33.8	  63.7	 63.7	 52.7	  33.8	  34.7	  33.8	  63.5	  63.5	  53.1	  22.4	  22.7	  19.2	 1006.1	 1006.6	 1006.0	  25.9	  34.3	  22.1	65616	 65617	 65617	Rain, light	  33.9	  34.0	  33.9	  0.00	  1.04	  6.02	
2018	02	17	21	06	50 	  33.8	  34.7	  33.9	  63.5	 63.3	 52.7	  33.8	  34.7	  33.8	  63.4	  63.2	  53.1	  22.3	  22.6	  19.2	 1006.2	 1006.6	 1006.0	  23.8	  34.3	  22.1	65616	 65617	 65617	Rain, light	  33.9	  34.0	  33.9	  0.00	  1.04	  6.02	
2018	02	17	21	06	20 	  33.9	  34.7	  33.9	  63.3	 63.3	 52.7	  33.8	  34.7	  33.8	  63.2	  63.2	  53.1	  22.3	  22.6	  19.2	 1006.2	 1006.6	 1006.0	  23.8	  34.3	  22.1	65616	 65617	 65617	Rain, light	  33.9	  34.0	  33.9	  0.00	  1.04	  6.02	
2018	02	17	21	05	50 	  33.9	  34.7	  33.9	  63.1	 62.9	 52.6	  33.8	  34.7	  33.8	  63.0	  62.8	  53.1	  22.2	  22.5	  19.2	 1006.1	 1006.6	 1006.0	  22.1	  34.3	  22.1	65616	 65617	 65617	Rain, light	  33.9	  34.0	  33.9	  0.00	  1.04	  6.02	
2018	02	17	21	05	20 	  33.9	  34.7	  33.9	  62.9	 62.9	 52.6	  33.8	  34.7	  33.8	  62.8	  62.8	  53.1	  22.1	  22.5	  19.2	 1006.1	 1006.6	 1006.0	  22.1	  34.3	  22.1	65616	 65617	 65617	Rain, light	  33.9	  34.0	  33.9	  0.00	  1.04	  6.02	
2018	02	17	21	04	50 	  33.9	  34.7	  33.9	  62.7	 62.4	 52.5	  33.9	  34.7	  33.9	  62.7	  62.4	  53.1	  22.0	  22.4	  19.2	 1006.1	 1006.6	 1006.0	  24.5	  34.3	  22.6	65616	 65617	 65617	Rain, light	  33.9	  34.0	  33.9	  0.00	  1.04	  6.02	
2018	02	17	21	04	20 	  33.9	  34.7	  33.9	  62.4	 62.4	 52.5	  33.9	  34.7	  33.9	  62.4	  62.4	  53.1	  21.9	  22.4	  19.2	 1006.1	 1006.6	 1006.0	  24.5	  34.3	  22.6	65616	 65617	 65617	Rain, light	  33.9	  34.0	  33.9	  0.00	  1.04	  6.02	
2018	02	17	21	03	50 	  34.0	  34.7	  34.0	  62.1	 61.8	 52.4	  33.9	  34.7	  33.9	  62.1	  61.8	  53.0	  21.8	  22.2	  19.2	 1006.1	 1006.6	 1006.1	  28.6	  34.3	  22.6	65616	 65617	 65617	Rain, light	  33.9	  34.0	  33.9	  0.00	  1.04	  6.02	
2018	02	17	21	03	20 	  34.0	  34.7	  34.0	  61.8	 61.8	 52.4	  33.9	  34.7	  33.9	  61.8	  61.8	  53.0	  21.7	  22.2	  19.2	 1006.1	 1006.6	 1006.1	  28.6	  34.3	  22.6	65616	 65617	 65617	Rain, light	  33.9	  34.0	  33.9	  0.00	  1.04	  6.02	
2018	02	17	21	02	50 	  34.0	  34.7	  34.0	  61.5	 61.2	 52.3	  34.0	  34.7	  34.0	  61.5	  61.2	  53.0	  21.6	  22.0	  19.2	 1006.1	 1006.6	 1006.1	  27.1	  34.3	  22.6	65616	 65617	 65617	Rain, light	  33.9	  34.0	  33.9	  0.00	  1.04	  6.02	
2018	02	17	21	02	20 	  34.0	  34.7	  34.0	  61.2	 61.2	 52.3	  34.0	  34.7	  34.0	  61.2	  61.2	  53.0	  21.5	  22.0	  19.2	 1006.1	 1006.6	 1006.1	  27.1	  34.3	  22.6	65616	 65617	 65617	Rain, light	  33.9	  34.0	  33.9	  0.00	  1.04	  6.02	
2018	02	17	21	01	50 	  34.1	  34.8	  34.1	  60.9	 60.5	 52.2	  34.0	  34.7	  34.1	  60.9	  60.5	  52.9	  21.4	  21.8	  19.2	 1006.1	 1006.6	 1006.1	  24.8	  34.6	  22.6	65616	 65617	 65617	Rain, light	  33.9	  34.0	  33.9	  0.00	  1.04	  6.02	
2018	02	17	21	01	20 	  34.1	  34.8	  34.1	  60.5	 60.5	 52.2	  34.1	  34.7	  34.1	  60.5	  60.5	  52.9	  21.3	  21.8	  19.2	 1006.1	 1006.6	 1006.1	  24.8	  34.6	  22.6	65616	 65617	 65617	Rain, light	  33.9	  34.0	  33.9	  0.00	  1.04	  6.02	
2018	02	17	21	00	50 	  34.1	  34.8	  34.2	  60.2	 59.8	 52.1	  34.1	  34.7	  34.1	  60.2	  59.8	  52.8	  21.2	  21.6	  19.1	 1006.1	 1006.6	 1006.1	  27.4	  34.6	  22.6	65616	 65617	 65617	Rain, light	  33.9	  34.0	  33.9	  0.00	  1.04	  6.02	
2018	02	17	21	00	20 	  34.2	  34.8	  34.2	  59.8	 59.8	 52.1	  34.1	  34.7	  34.1	  59.8	  59.8	  52.8	  21.1	  21.6	  19.1	 1006.1	 1006.6	 1006.1	  27.4	  34.6	  22.6	65616	 65617	 65617	Rain, light	  33.9	  34.0	  33.9	  0.00	  1.04	  6.02	
2018	02	17	20	59	50 	  34.2	  34.8	  34.2	  59.5	 59.2	 52.0	  34.1	  34.7	  34.2	  59.5	  59.2	  52.7	  21.0	  21.4	  19.1	 1006.1	 1006.6	 1006.1	  27.2	  34.6	  22.6	65616	 65617	 65617	Rain, light	  33.9	  34.0	  33.9	  0.00	  1.04	  6.02	
2018	02	17	20	59	20 	  34.2	  34.8	  34.2	  59.2	 59.2	 52.0	  34.2	  34.7	  34.2	  59.2	  59.2	  52.7	  21.0	  21.4	  19.1	 1006.1	 1006.6	 1006.1	  27.2	  34.6	  22.6	65616	 65617	 65617	Rain, light	  33.9	  34.0	  33.9	  0.00	  1.04	  6.02	
2018	02	17	20	58	50 	  34.2	  34.8	  34.3	  58.9	 58.6	 52.0	  34.2	  34.7	  34.2	  59.0	  58.7	  52.6	  20.9	  21.2	  19.1	 1006.1	 1006.6	 1006.1	  22.6	  34.6	  22.6	65616	 65617	 65617	Rain, light	  33.9	  34.0	  33.9	  0.00	  1.04	  6.02	
2018	02	17	20	58	20 	  34.3	  34.8	  34.3	  58.6	 58.6	 52.0	  34.2	  34.7	  34.2	  58.7	  58.7	  52.6	  20.8	  21.2	  19.1	 1006.1	 1006.6	 1006.1	  22.6	  34.6	  22.6	65616	 65617	 65617	Rain, light	  33.9	  34.0	  33.9	  0.00	  1.04	  6.02	
2018	02	17	20	57	50 	  34.3	  34.8	  34.3	  58.3	 58.0	 51.9	  34.2	  34.7	  34.2	  58.4	  58.1	  52.6	  20.8	  21.0	  19.0	 1006.1	 1006.6	 1006.1	  23.9	  34.6	  23.9	65616	 65617	 65617	Rain, light	  33.9	  34.0	  33.9	  0.00	  1.04	  6.02	
2018	02	17	20	57	20 	  34.3	  34.8	  34.3	  58.0	 58.0	 51.9	  34.2	  34.7	  34.2	  58.1	  58.1	  52.6	  20.7	  21.0	  19.0	 1006.1	 1006.6	 1006.1	  23.9	  34.6	  23.9	65616	 65617	 65617	Rain, light	  33.9	  34.0	  33.9	  0.00	  1.04	  6.02	
2018	02	17	20	56	50 	  34.3	  34.8	  34.3	  57.8	 57.6	 51.9	  34.2	  34.7	  34.2	  57.9	  57.7	  52.5	  20.6	  20.9	  19.0	 1006.1	 1006.6	 1006.1	  27.9	  34.6	  24.7	65616	 65617	 65617	Clear	  33.9	  34.0	  33.9	  0.00	  1.04	  6.02	
2018	02	17	20	56	20 	  34.3	  34.8	  34.3	  57.6	 57.6	 51.9	  34.2	  34.7	  34.2	  57.7	  57.7	  52.5	  20.6	  20.9	  19.0	 1006.2	 1006.6	 1006.1	  27.9	  34.6	  24.7	65616	 65617	 65617	Clear	  33.9	  34.0	  33.9	  0.00	  1.04	  6.02	
2018	02	17	20	55	50 	  34.3	  34.8	  34.3	  57.4	 57.2	 51.8	  34.3	  34.7	  34.2	  57.5	  57.3	  52.4	  20.6	  20.7	  19.0	 1006.2	 1006.6	 1006.1	  26.8	  34.6	  24.7	65616	 65617	 65617	Clear	  33.9	  34.0	  33.9	  0.00	  1.04	  6.02	
2018	02	17	20	55	20 	  34.3	  34.8	  34.3	  57.2	 57.2	 51.8	  34.3	  34.7	  34.2	  57.3	  57.3	  52.4	  20.5	  20.7	  19.0	 1006.2	 1006.6	 1006.1	  26.8	  34.6	  24.7	65616	 65617	 65617	Clear	  33.9	  34.0	  33.9	  0.00	  1.04	  6.02	
2018	02	17	20	54	50 	  34.3	  34.8	  34.3	  57.1	 56.9	 51.8	  34.3	  34.7	  34.2	  57.2	  57.0	  52.4	  20.5	  20.6	  19.0	 1006.1	 1006.6	 1006.1	  27.7	  34.6	  24.7	65616	 65617	 65617	Clear	  33.9	  34.0	  33.9	  0.00	  1.04	  6.02	
2018	02	17	20	54	20 	  34.3	  34.8	  34.3	  56.9	 56.9	 51.8	  34.3	  34.7	  34.2	  57.0	  57.0	  52.4	  20.5	  20.6	  19.0	 1006.2	 1006.6	 1006.1	  27.7	  34.6	  24.7	65616	 65617	 65617	Clear	  33.9	  34.0	  33.9	  0.00	  1.04	  6.02	
2018	02	17	20	53	50 	  34.3	  34.8	  34.3	  56.8	 56.8	 51.7	  34.3	  34.7	  34.2	  57.0	  56.9	  52.3	  20.5	  20.5	  19.0	 1006.2	 1006.6	 1006.2	  27.6	  34.6	  24.7	65616	 65617	 65617	Clear	  33.9	  34.0	  33.9	  0.00	  1.04	  6.02	
2018	02	17	20	53	20 	  34.3	  34.8	  34.3	  56.8	 56.8	 51.7	  34.3	  34.7	  34.2	  56.9	  56.9	  52.3	  20.5	  20.5	  19.0	 1006.2	 1006.6	 1006.2	  27.6	  34.6	  24.7	65616	 65617	 65617	Clear	  33.9	  34.0	  33.9	  0.00	  1.04	  6.02	
2018	02	17	20	52	50 	  34.3	  34.8	  34.3	  56.7	 56.6	 51.6	  34.3	  34.7	  34.2	  56.9	  56.8	  52.2	  20.4	  20.5	  18.9	 1006.2	 1006.6	 1006.2	  27.7	  34.6	  24.7	65616	 65617	 65617	Clear	  33.9	  34.0	  33.9	  0.00	  1.04	  6.02	
2018	02	17	20	52	20 	  34.3	  34.8	  34.3	  56.6	 56.6	 51.6	  34.2	  34.7	  34.2	  56.8	  56.8	  52.2	  20.4	  20.5	  18.9	 1006.2	 1006.6	 1006.2	  27.7	  34.6	  24.7	65616	 65617	 65617	Clear	  33.9	  34.0	  33.9	  0.00	  1.04	  6.02	
2018	02	17	20	51	50 	  34.3	  34.8	  34.3	  56.6	 56.5	 51.6	  34.2	  34.7	  34.2	  56.8	  56.8	  52.2	  20.4	  20.5	  18.9	 1006.2	 1006.7	 1006.2	  28.1	  34.6	  24.7	65616	 65617	 65617	Clear	  33.9	  34.0	  33.9	  0.00	  1.04	  6.02	
2018	02	17	20	51	20 	  34.3	  34.8	  34.3	  56.5	 56.5	 51.6	  34.2	  34.7	  34.2	  56.8	  56.8	  52.2	  20.4	  20.5	  18.9	 1006.2	 1006.7	 1006.2	  28.1	  34.6	  24.7	65616	 65617	 65617	Clear	  33.9	  34.0	  33.9	  0.00	  1.04	  6.02	
2018	02	17	20	50	50 	  34.3	  34.8	  34.3	  56.5	 56.4	 51.6	  34.2	  34.7	  34.2	  56.8	  56.8	  52.2	  20.4	  20.5	  18.9	 1006.2	 1006.7	 1006.2	  29.7	  34.6	  24.7	65616	 65617	 65617	Clear	  33.9	  34.0	  33.9	  0.00	  1.04	  6.02	
2018	02	17	20	50	20 	  34.3	  34.8	  34.3	  56.4	 56.4	 51.6	  34.2	  34.7	  34.2	  56.8	  56.8	  52.2	  20.4	  20.5	  18.9	 1006.2	 1006.7	 1006.2	  29.7	  34.6	  24.7	65616	 65617	 65617	Clear	  33.9	  34.0	  33.9	  0.00	  1.04	  6.02	
2018	02	17	20	49	50 	  34.3	  34.8	  34.3	  56.3	 56.3	 51.6	  34.2	  34.7	  34.2	  56.7	  56.6	  52.2	  20.3	  20.4	  18.9	 1006.3	 1006.7	 1006.2	  33.0	  34.6	  24.7	65616	 65617	 65617	Clear	  33.9	  34.0	  33.9	  0.00	  1.04	  6.02	
2018	02	17	20	49	20 	  34.3	  34.8	  34.3	  56.3	 56.3	 51.6	  34.2	  34.7	  34.2	  56.6	  56.6	  52.2	  20.3	  20.4	  18.9	 1006.2	 1006.7	 1006.2	  33.0	  34.6	  24.7	65616	 65617	 65617	Clear	  33.9	  34.0	  33.9	  0.00	  1.04	  6.02	
2018	02	17	20	48	50 	  34.4	  34.8	  34.4	  56.2	 56.1	 51.6	  34.2	  34.7	  34.3	  56.6	  56.5	  52.2	  20.3	  20.4	  18.9	 1006.2	 1006.7	 1006.2	  32.0	  34.6	  24.7	65616	 65617	 65617	Clear	  33.9	  34.0	  33.9	  0.00	  1.04	  6.02	
2018	02	17	20	48	20 	  34.4	  34.8	  34.4	  56.1	 56.1	 51.6	  34.3	  34.7	  34.3	  56.5	  56.5	  52.2	  20.3	  20.4	  18.9	 1006.2	 1006.7	 1006.2	  32.0	  34.6	  24.7	65616	 65617	 65617	Clear	  33.9	  34.0	  33.9	  0.00	  1.04	  6.02	
2018	02	17	20	47	50 	  34.4	  34.8	  34.4	  56.1	 56.0	 51.6	  34.3	  34.7	  34.3	  56.5	  56.4	  52.2	  20.3	  20.4	  18.9	 1006.2	 1006.7	 1006.2	  31.3	  34.6	  24.7	65616	 65617	 65617	Clear	  33.9	  34.0	  33.9	  0.00	  1.04	  6.02	
2018	02	17	20	47	20 	  34.4	  34.8	  34.4	  56.0	 56.0	 51.6	  34.3	  34.7	  34.3	  56.4	  56.4	  52.2	  20.2	  20.4	  18.9	 1006.2	 1006.7	 1006.2	  31.3	  34.6	  24.7	65616	 65617	 65617	Clear	  33.9	  34.0	  33.9	  0.00	  1.04	  6.02	
2018	02	17	20	46	50 	  34.4	  34.8	  34.4	  55.9	 55.9	 51.6	  34.3	  34.7	  34.3	  56.3	  56.2	  52.2	  20.2	  20.3	  18.9	 1006.2	 1006.7	 1006.2	  33.7	  34.6	  24.7	65616	 65617	 65617	Clear	  33.9	  34.0	  33.9	  0.00	  1.04	  6.02	
2018	02	17	20	46	20 	  34.4	  34.8	  34.4	  55.9	 55.9	 51.6	  34.3	  34.7	  34.3	  56.2	  56.2	  52.2	  20.2	  20.3	  18.9	 1006.3	 1006.7	 1006.2	  33.7	  34.6	  24.7	65616	 65617	 65617	Clear	  33.9	  34.0	  33.9	  0.00	  1.04	  6.02	
2018	02	17	20	45	50 	  34.4	  34.8	  34.4	  55.8	 55.8	 51.6	  34.3	  34.7	  34.3	  56.2	  56.1	  52.2	  20.2	  20.3	  18.9	 1006.3	 1006.7	 1006.2	  33.2	  34.6	  24.7	65616	 65617	 65617	Clear	  33.9	  34.0	  33.9	  0.00	  1.04	  6.02	
2018	02	17	20	45	20 	  34.4	  34.8	  34.4	  55.8	 55.8	 51.6	  34.3	  34.7	  34.3	  56.1	  56.1	  52.2	  20.2	  20.3	  18.9	 1006.3	 1006.7	 1006.2	  33.2	  34.6	  24.7	65616	 65617	 65617	Clear	  33.9	  34.0	  33.9	  0.00	  1.04	  6.02	
2018	02	17	20	44	50 	  34.4	  34.8	  34.4	  55.7	 55.7	 51.6	  34.3	  34.7	  34.3	  56.0	  56.0	  52.2	  20.1	  20.2	  18.9	 1006.3	 1006.7	 1006.3	  32.6	  34.6	  24.7	65616	 65617	 65617	Clear	  33.9	  34.0	  33.9	  0.00	  1.04	  6.02	
2018	02	17	20	44	20 	  34.4	  34.8	  34.4	  55.7	 55.7	 51.6	  34.3	  34.7	  34.3	  56.0	  56.0	  52.2	  20.1	  20.2	  18.9	 1006.3	 1006.7	 1006.3	  32.6	  34.6	  24.7	65616	 65617	 65617	Clear	  33.9	  34.0	  33.9	  0.00	  1.04	  6.02	
2018	02	17	20	43	50 	  34.4	  34.8	  34.4	  55.6	 55.6	 51.6	  34.3	  34.7	  34.3	  55.9	  55.8	  52.2	  20.1	  20.2	  18.9	 1006.3	 1006.7	 1006.3	  30.2	  34.6	  24.7	65616	 65617	 65617	Clear	  33.9	  34.0	  33.9	  0.00	  1.04	  6.02	
2018	02	17	20	43	20 	  34.4	  34.8	  34.4	  55.6	 55.6	 51.6	  34.3	  34.7	  34.3	  55.8	  55.8	  52.2	  20.1	  20.2	  18.9	 1006.3	 1006.7	 1006.3	  30.2	  34.6	  24.7	65616	 65617	 65617	Clear	  33.9	  34.0	  33.9	  0.00	  1.04	  6.02	
2018	02	17	20	42	50 	  34.4	  34.8	  34.4	  55.5	 55.5	 51.6	  34.3	  34.7	  34.3	  55.8	  55.7	  52.2	  20.1	  20.1	  18.9	 1006.3	 1006.7	 1006.3	  29.5	  34.6	  24.7	65616	 65617	 65617	Clear	  33.9	  34.0	  33.9	  0.00	  1.04	  6.02	
2018	02	17	20	42	20 	  34.4	  34.8	  34.4	  55.5	 55.5	 51.6	  34.3	  34.7	  34.3	  55.7	  55.7	  52.2	  20.1	  20.1	  18.9	 1006.3	 1006.7	 1006.3	  29.5	  34.6	  24.7	65616	 65617	 65617	Clear	  33.9	  34.0	  33.9	  0.00	  1.04	  6.02	
2018	02	17	20	41	50 	  34.4	  34.8	  34.4	  55.4	 55.4	 51.6	  34.3	  34.7	  34.4	  55.7	  55.6	  52.2	  20.1	  20.1	  18.9	 1006.4	 1006.7	 1006.4	  34.3	  34.6	  24.7	65616	 65617	 65617	Clear	  33.9	  34.0	  33.9	  0.00	  1.04	  6.02	
2018	02	17	20	41	20 	  34.4	  34.8	  34.4	  55.4	 55.4	 51.6	  34.4	  34.7	  34.4	  55.6	  55.6	  52.2	  20.1	  20.1	  18.9	 1006.4	 1006.7	 1006.4	  34.3	  34.6	  24.7	65616	 65617	 65617	Clear	  33.9	  34.0	  33.9	  0.00	  1.04	  6.02	
2018	02	17	20	40	50 	  34.4	  34.8	  34.5	  55.4	 55.3	 51.6	  34.4	  34.7	  34.4	  55.6	  55.6	  52.2	  20.1	  20.1	  18.8	 1006.4	 1006.7	 1006.4	  34.0	  34.6	  24.7	65616	 65617	 65617	Clear	  33.9	  34.0	  33.9	  0.00	  1.04	  6.02	
2018	02	17	20	40	20 	  34.5	  34.8	  34.5	  55.3	 55.3	 51.6	  34.4	  34.7	  34.4	  55.6	  55.6	  52.2	  20.1	  20.1	  18.8	 1006.4	 1006.7	 1006.4	  34.0	  34.6	  24.7	65616	 65617	 65617	Clear	  33.9	  34.0	  33.9	  0.00	  1.04	  6.02	
2018	02	17	20	39	50 	  34.5	  34.8	  34.5	  55.3	 55.3	 51.6	  34.4	  34.7	  34.4	  55.6	  55.5	  52.1	  20.0	  20.1	  18.7	 1006.4	 1006.7	 1006.4	  28.9	  34.6	  24.7	65616	 65617	 65617	Clear	  33.9	  34.0	  33.9	  0.00	  1.04	  6.02	
2018	02	17	20	39	20 	  34.5	  34.8	  34.5	  55.3	 55.3	 51.6	  34.4	  34.7	  34.4	  55.5	  55.5	  52.1	  20.0	  20.1	  18.7	 1006.4	 1006.7	 1006.4	  28.9	  34.6	  24.7	65616	 65617	 65617	Clear	  33.9	  34.0	  33.9	  0.00	  1.04	  6.02	
2018	02	17	20	38	50 	  34.5	  34.8	  34.5	  55.2	 55.2	 51.5	  34.4	  34.7	  34.4	  55.5	  55.4	  51.9	  20.0	  20.1	  18.7	 1006.4	 1006.7	 1006.4	  28.1	  34.6	  24.7	65616	 65617	 65617	Clear	  33.9	  34.0	  33.9	  0.00	  1.04	  6.02	
2018	02	17	20	38	20 	  34.5	  34.8	  34.5	  55.2	 55.2	 51.5	  34.4	  34.7	  34.4	  55.4	  55.4	  51.9	  20.0	  20.1	  18.7	 1006.4	 1006.7	 1006.4	  28.1	  34.6	  24.7	65616	 65617	 65617	Clear	  33.9	  34.0	  33.9	  0.00	  1.04	  6.02	
2018	02	17	20	37	50 	  34.5	  34.8	  34.5	  55.2	 55.1	 51.3	  34.4	  34.7	  34.4	  55.4	  55.4	  51.7	  20.0	  20.0	  18.6	 1006.4	 1006.7	 1006.4	  30.6	  34.6	  24.7	65616	 65617	 65617	Clear	  33.9	  34.0	  33.9	  0.00	  1.04	  6.02	
2018	02	17	20	37	20 	  34.5	  34.8	  34.5	  55.1	 55.1	 51.3	  34.4	  34.7	  34.4	  55.4	  55.4	  51.7	  20.0	  20.0	  18.6	 1006.4	 1006.7	 1006.4	  30.6	  34.6	  24.7	65616	 65617	 65617	Clear	  33.9	  34.0	  33.9	  0.00	  1.04	  6.02	
2018	02	17	20	36	50 	  34.5	  34.8	  34.5	  55.1	 55.0	 51.2	  34.4	  34.7	  34.4	  55.3	  55.3	  51.6	  20.0	  20.0	  18.6	 1006.4	 1006.7	 1006.4	  33.1	  34.6	  24.7	65616	 65617	 65617	Clear	  33.9	  34.0	  33.9	  0.00	  1.04	  6.02	
2018	02	17	20	36	20 	  34.5	  34.8	  34.5	  55.0	 55.0	 51.2	  34.4	  34.7	  34.4	  55.3	  55.3	  51.6	  20.0	  20.0	  18.6	 1006.4	 1006.7	 1006.4	  33.1	  34.6	  24.7	65616	 65617	 65617	Clear	  33.9	  34.0	  33.9	  0.00	  1.04	  6.02	
2018	02	17	20	35	50 	  34.5	  34.8	  34.5	  55.0	 54.9	 51.1	  34.4	  34.7	  34.4	  55.3	  55.3	  51.6	  20.0	  20.0	  18.6	 1006.4	 1006.7	 1006.4	  31.8	  34.6	  24.7	65616	 65617	 65617	Clear	  33.9	  34.0	  33.9	  0.00	  1.04	  6.02	
2018	02	17	20	35	20 	  34.5	  34.8	  34.5	  54.9	 54.9	 51.1	  34.4	  34.7	  34.4	  55.3	  55.3	  51.6	  20.0	  20.0	  18.6	 1006.4	 1006.7	 1006.4	  31.8	  34.6	  24.7	65616	 65617	 65617	Clear	  33.9	  34.0	  33.9	  0.00	  1.04	  6.02	
2018	02	17	20	34	50 	  34.5	  34.8	  34.5	  54.8	 54.8	 51.0	  34.4	  34.7	  34.4	  55.2	  55.2	  51.5	  20.0	  20.0	  18.6	 1006.4	 1006.7	 1006.4	  31.3	  34.6	  24.7	65616	 65617	 65617	Clear	  33.9	  34.0	  33.9	  0.00	  1.04	  6.02	
2018	02	17	20	34	20 	  34.5	  34.8	  34.5	  54.8	 54.8	 51.0	  34.4	  34.7	  34.4	  55.2	  55.2	  51.5	  19.9	  20.0	  18.6	 1006.5	 1006.7	 1006.4	  31.3	  34.6	  24.7	65616	 65617	 65617	Clear	  33.9	  34.0	  33.9	  0.00	  1.04	  6.02	
2018	02	17	20	33	50 	  34.5	  34.8	  34.5	  54.8	 54.7	 50.9	  34.4	  34.7	  34.4	  55.2	  55.2	  51.5	  19.9	  20.0	  18.6	 1006.5	 1006.7	 1006.3	  30.2	  34.6	  24.7	65616	 65617	 65617	Clear	  33.9	  34.0	  33.9	  0.00	  1.04	  6.02	
2018	02	17	20	33	21 	  34.5	  34.8	  34.5	  54.7	 54.7	 50.9	  34.4	  34.7	  34.4	  55.2	  55.2	  51.5	  19.9	  20.0	  18.6	 1006.5	 1006.7	 1006.3	  30.2	  34.6	  24.7	65616	 65617	 65617	Clear	  33.9	  34.0	  33.9	  0.00	  1.04	  6.02	
2018	02	17	20	32	51 	  34.5	  34.8	  34.5	  54.7	 54.7	 50.8	  34.4	  34.7	  34.4	  55.2	  55.2	  51.4	  19.9	  20.0	  18.5	 1006.5	 1006.7	 1006.3	  31.2	  34.6	  24.7	65616	 65617	 65617	Clear	  33.9	  34.0	  33.9	  0.00	  1.04	  6.02	
2018	02	17	20	32	21 	  34.5	  34.8	  34.5	  54.7	 54.7	 50.8	  34.4	  34.7	  34.4	  55.2	  55.2	  51.4	  19.9	  20.0	  18.5	 1006.5	 1006.7	 1006.3	  31.2	  34.6	  24.7	65616	 65617	 65617	Clear	  33.9	  34.0	  33.9	  0.00	  1.04	  6.02	
2018	02	17	20	31	51 	  34.5	  34.8	  34.5	  54.6	 54.6	 50.8	  34.4	  34.7	  34.4	  55.2	  55.2	  51.4	  19.8	  19.9	  18.5	 1006.5	 1006.7	 1006.3	  32.5	  34.6	  24.7	65616	 65617	 65617	Clear	  33.9	  34.0	  33.9	  0.00	  1.04	  6.02	
2018	02	17	20	31	21 	  34.5	  34.8	  34.5	  54.6	 54.6	 50.8	  34.4	  34.7	  34.4	  55.2	  55.2	  51.4	  19.8	  19.9	  18.5	 1006.5	 1006.7	 1006.3	  32.5	  34.6	  24.7	65616	 65617	 65617	Clear	  33.9	  34.0	  33.9	  0.00	  1.04	  6.02	
2018	02	17	20	30	51 	  34.5	  34.8	  34.5	  54.5	 54.5	 50.7	  34.4	  34.7	  34.4	  55.1	  55.0	  51.4	  19.8	  19.9	  18.5	 1006.4	 1006.7	 1006.3	  31.2	  34.6	  24.7	65616	 65617	 65617	Clear	  33.9	  34.0	  33.9	  0.00	  1.04	  6.02	
2018	02	17	20	30	21 	  34.5	  34.8	  34.5	  54.5	 54.5	 50.7	  34.4	  34.7	  34.4	  55.0	  55.0	  51.4	  19.8	  19.9	  18.5	 1006.4	 1006.7	 1006.3	  31.2	  34.6	  24.7	65616	 65617	 65617	Clear	  33.9	  34.0	  33.9	  0.00	  1.04	  6.02	
2018	02	17	20	29	51 	  34.5	  34.8	  34.5	  54.4	 54.3	 50.7	  34.4	  34.7	  34.4	  55.0	  54.9	  51.3	  19.7	  19.9	  18.5	 1006.4	 1006.7	 1006.3	  32.8	  34.6	  24.7	65616	 65617	 65617	Clear	  33.9	  34.0	  33.9	  0.00	  1.04	  6.02	
2018	02	17	20	29	21 	  34.5	  34.8	  34.5	  54.3	 54.3	 50.7	  34.4	  34.7	  34.4	  54.9	  54.9	  51.3	  19.7	  19.9	  18.5	 1006.4	 1006.7	 1006.3	  32.8	  34.6	  24.7	65616	 65617	 65617	Clear	  33.9	  34.0	  33.9	  0.00	  1.04	  6.02	
2018	02	17	20	28	51 	  34.6	  34.8	  34.6	  54.3	 54.2	 50.7	  34.5	  34.7	  34.5	  54.7	  54.6	  51.3	  19.7	  19.8	  18.5	 1006.4	 1006.7	 1006.3	  32.9	  34.6	  24.7	65616	 65617	 65617	Clear	  33.9	  34.0	  33.9	  0.00	  1.04	  6.02	
2018	02	17	20	28	21 	  34.6	  34.8	  34.6	  54.2	 54.2	 50.7	  34.5	  34.7	  34.5	  54.6	  54.6	  51.3	  19.7	  19.8	  18.5	 1006.4	 1006.7	 1006.3	  32.9	  34.6	  24.7	65616	 65617	 65617	Clear	  33.9	  34.0	  33.9	  0.00	  1.04	  6.02	
2018	02	17	20	27	51 	  34.6	  34.8	  34.6	  54.2	 54.1	 50.7	  34.5	  34.7	  34.5	  54.6	  54.5	  51.3	  19.7	  19.7	  18.4	 1006.5	 1006.7	 1006.3	  33.5	  34.6	  24.7	65616	 65617	 65617	Clear	  33.9	  34.0	  33.9	  0.00	  1.04	  6.02	
2018	02	17	20	27	21 	  34.6	  34.8	  34.6	  54.1	 54.1	 50.7	  34.5	  34.7	  34.5	  54.5	  54.5	  51.3	  19.7	  19.7	  18.4	 1006.5	 1006.7	 1006.3	  33.5	  34.6	  24.7	65616	 65617	 65617	Clear	  33.9	  34.0	  33.9	  0.00	  1.04	  6.02	
2018	02	17	20	26	51 	  34.6	  34.8	  34.6	  54.1	 54.0	 50.7	  34.5	  34.7	  34.5	  54.4	  54.3	  51.3	  19.7	  19.7	  18.4	 1006.5	 1006.7	 1006.3	  30.4	  34.6	  24.7	65616	 65617	 65617	Clear	  33.9	  34.0	  33.9	  0.00	  1.04	  6.02	
2018	02	17	20	26	21 	  34.6	  34.8	  34.6	  54.0	 54.0	 50.7	  34.5	  34.7	  34.5	  54.3	  54.3	  51.3	  19.7	  19.7	  18.4	 1006.5	 1006.7	 1006.3	  30.4	  34.6	  24.7	65616	 65617	 65617	Clear	  33.9	  34.0	  33.9	  0.00	  1.04	  6.02	
2018	02	17	20	25	51 	  34.6	  34.8	  34.6	  54.0	 54.0	 50.6	  34.5	  34.7	  34.5	  54.3	  54.3	  51.2	  19.7	  19.7	  18.4	 1006.5	 1006.7	 1006.3	  26.6	  34.6	  24.7	65616	 65617	 65617	Clear	  33.9	  34.0	  33.9	  0.00	  1.04	  6.02	
2018	02	17	20	25	21 	  34.6	  34.8	  34.6	  54.0	 54.0	 50.6	  34.5	  34.7	  34.5	  54.3	  54.3	  51.2	  19.7	  19.7	  18.4	 1006.5	 1006.7	 1006.3	  26.6	  34.6	  24.7	65616	 65617	 65617	Clear	  33.9	  34.0	  33.9	  0.00	  1.04	  6.02	
2018	02	17	20	24	51 	  34.6	  34.8	  34.6	  54.0	 54.0	 50.5	  34.5	  34.7	  34.5	  54.3	  54.3	  51.0	  19.6	  19.7	  18.4	 1006.6	 1006.7	 1006.3	  27.2	  34.6	  24.7	65616	 65617	 65617	Clear	  33.9	  34.0	  33.9	  0.00	  1.04	  6.02	
2018	02	17	20	24	21 	  34.6	  34.8	  34.6	  54.0	 54.0	 50.5	  34.5	  34.7	  34.5	  54.3	  54.3	  51.0	  19.6	  19.7	  18.4	 1006.6	 1006.7	 1006.3	  27.2	  34.6	  24.7	65616	 65617	 65617	Clear	  33.9	  34.0	  33.9	  0.00	  1.04	  6.02	
2018	02	17	20	23	51 	  34.6	  34.8	  34.6	  53.9	 53.9	 50.5	  34.5	  34.7	  34.5	  54.3	  54.3	  50.9	  19.6	  19.7	  18.3	 1006.6	 1006.7	 1006.3	  29.3	  34.6	  24.7	65616	 65617	 65617	Clear	  33.9	  34.0	  33.9	  0.00	  1.04	  6.02	
2018	02	17	20	23	21 	  34.6	  34.8	  34.6	  53.9	 53.9	 50.5	  34.5	  34.7	  34.5	  54.3	  54.3	  50.9	  19.6	  19.7	  18.3	 1006.6	 1006.7	 1006.3	  29.3	  34.6	  24.7	65616	 65617	 65617	Clear	  33.9	  34.0	  33.9	  0.00	  1.04	  6.02	
2018	02	17	20	22	51 	  34.6	  34.8	  34.6	  53.9	 53.8	 50.5	  34.5	  34.7	  34.5	  54.3	  54.3	  50.9	  19.6	  19.7	  18.3	 1006.6	 1006.7	 1006.3	  29.4	  34.6	  24.7	65616	 65617	 65617	Clear	  33.9	  34.0	  33.9	  0.00	  1.04	  6.02	
2018	02	17	20	22	21 	  34.6	  34.8	  34.6	  53.8	 53.8	 50.5	  34.5	  34.7	  34.5	  54.3	  54.3	  50.9	  19.6	  19.7	  18.3	 1006.6	 1006.7	 1006.3	  29.4	  34.6	  24.7	65616	 65617	 65617	Clear	  33.9	  34.0	  33.9	  0.00	  1.04	  6.02	
2018	02	17	20	21	51 	  34.6	  34.8	  34.6	  53.8	 53.7	 50.5	  34.5	  34.7	  34.5	  54.2	  54.2	  50.9	  19.5	  19.6	  18.3	 1006.6	 1006.7	 1006.2	  32.1	  34.6	  24.7	65616	 65617	 65617	Clear	  33.9	  34.0	  33.9	  0.00	  1.04	  6.02	
2018	02	17	20	21	21 	  34.6	  34.8	  34.6	  53.7	 53.7	 50.5	  34.5	  34.7	  34.5	  54.2	  54.2	  50.9	  19.5	  19.6	  18.3	 1006.6	 1006.7	 1006.2	  32.1	  34.6	  24.7	65616	 65617	 65617	Clear	  33.9	  34.0	  33.9	  0.00	  1.04	  6.02	
2018	02	17	20	20	51 	  34.6	  34.8	  34.6	  53.6	 53.5	 50.5	  34.5	  34.7	  34.5	  54.1	  54.0	  50.9	  19.5	  19.6	  18.3	 1006.6	 1006.7	 1006.2	  33.0	  34.6	  24.7	65616	 65617	 65617	Clear	  33.9	  34.0	  33.9	  0.00	  1.04	  6.02	
2018	02	17	20	20	21 	  34.7	  34.8	  34.6	  53.5	 53.5	 50.5	  34.6	  34.7	  34.5	  54.0	  54.0	  50.9	  19.4	  19.6	  18.3	 1006.5	 1006.7	 1006.2	  33.0	  34.6	  24.7	65616	 65617	 65617	Clear	  33.9	  34.0	  33.9	  0.00	  1.04	  6.02	

Wind data

Year   mnth   day   hh    mm     ss       ff    dd

2018	02	17	22	24	35 	   3.6	  166	
2018	02	17	22	24	05 	   7.8	  191	
2018	02	17	22	23	35 	   4.9	  133	
2018	02	17	22	23	05 	   6.9	  165	
2018	02	17	22	22	35 	   4.0	  167	
2018	02	17	22	22	05 	   2.7	  150	
2018	02	17	22	21	35 	   3.8	  187	
2018	02	17	22	21	05 	   1.1	  157	
2018	02	17	22	20	35 	   5.6	  162	
2018	02	17	22	20	05 	   4.5	  153	
2018	02	17	22	19	35 	   6.7	  173	
2018	02	17	22	19	05 	   6.7	  157	
2018	02	17	22	18	35 	   3.6	  148	
2018	02	17	22	18	05 	   5.1	  165	
2018	02	17	22	17	35 	   3.8	  180	
2018	02	17	22	17	05 	   7.6	  165	
2018	02	17	22	16	35 	   3.8	  180	
2018	02	17	22	16	05 	   5.6	  166	
2018	02	17	22	15	35 	   8.1	  139	
2018	02	17	22	15	04 	   4.0	  167	
2018	02	17	22	14	34 	   4.7	  194	
2018	02	17	22	14	04 	  10.5	  154	
2018	02	17	22	13	34 	  13.9	  167	
2018	02	17	22	13	04 	   4.5	  160	
2018	02	17	22	12	34 	   9.6	  149	
2018	02	17	22	12	04 	   6.9	  169	
2018	02	17	22	11	34 	   3.8	  156	
2018	02	17	22	11	04 	   4.3	  155	
2018	02	17	22	10	34 	   4.7	  155	
2018	02	17	22	10	04 	   8.7	  150	
2018	02	17	22	09	34 	   3.4	  172	
2018	02	17	22	09	04 	   4.7	  147	
2018	02	17	22	08	34 	   5.6	  133	
2018	02	17	22	08	04 	   2.2	  150	
2018	02	17	22	07	34 	   3.4	  169	
2018	02	17	22	07	04 	   2.2	  127	
2018	02	17	22	06	34 	   2.0	  186	
2018	02	17	22	06	04 	   2.7	  166	
2018	02	17	22	05	34 	   4.3	  150	
2018	02	17	22	05	04 	   6.5	  169	
2018	02	17	22	04	34 	   1.3	  189	
2018	02	17	22	04	04 	   2.2	  150	
2018	02	17	22	03	34 	   4.9	  182	
2018	02	17	22	03	04 	   4.3	  155	
2018	02	17	22	02	34 	   4.9	  196	
2018	02	17	22	02	04 	   7.4	  192	
2018	02	17	22	01	34 	   2.7	  175	
2018	02	17	22	01	04 	   4.9	  173	
2018	02	17	22	00	34 	   2.5	  170	
2018	02	17	22	00	04 	   4.9	  188	
2018	02	17	21	59	34 	   1.8	  166	
2018	02	17	21	59	04 	   3.6	  146	
2018	02	17	21	58	34 	   1.6	  197	
2018	02	17	21	58	04 	   6.7	  157	
2018	02	17	21	57	34 	   7.2	  153	
2018	02	17	21	57	04 	   3.8	  118	
2018	02	17	21	56	34 	   4.5	  160	
2018	02	17	21	56	04 	   3.8	  170	
2018	02	17	21	55	34 	   4.7	  178	
2018	02	17	21	55	04 	   3.4	  152	
2018	02	17	21	54	34 	   2.9	  171	
2018	02	17	21	54	04 	   1.6	  205	
2018	02	17	21	53	34 	   2.7	  180	
2018	02	17	21	53	04 	   4.0	  148	
2018	02	17	21	52	34 	   2.5	  147	
2018	02	17	21	52	04 	   2.5	  134	
2018	02	17	21	51	34 	   3.1	  188	
2018	02	17	21	51	04 	   3.1	  188	
2018	02	17	21	50	34 	   7.2	  182	
2018	02	17	21	50	04 	   6.9	  165	
2018	02	17	21	49	34 	   2.2	  180	
2018	02	17	21	49	04 	   2.0	  161	
2018	02	17	21	48	34 	   5.8	  187	
2018	02	17	21	48	04 	   7.6	  163	
2018	02	17	21	47	34 	   2.2	   73	
2018	02	17	21	47	04 	   2.9	  122	
2018	02	17	21	46	34 	   3.6	  166	
2018	02	17	21	46	04 	   7.6	  156	
2018	02	17	21	45	34 	   5.1	  178	
2018	02	17	21	45	04 	   4.7	  155	
2018	02	17	21	44	34 	   5.1	  198	
2018	02	17	21	44	04 	   6.5	  169	
2018	02	17	21	43	34 	   3.8	  197	
2018	02	17	21	43	04 	   4.7	  164	
2018	02	17	21	42	34 	   7.8	  158	
2018	02	17	21	42	04 	   8.5	  153	
2018	02	17	21	41	34 	   5.6	  187	
2018	02	17	21	41	04 	   5.6	  164	
2018	02	17	21	40	34 	   6.3	  168	
2018	02	17	21	40	04 	   4.7	  172	
2018	02	17	21	39	34 	   5.1	  140	
2018	02	17	21	39	04 	   4.3	  159	
2018	02	17	21	38	34 	   5.1	  180	
2018	02	17	21	38	04 	   0.9	  132	
2018	02	17	21	37	34 	   2.9	  128	
2018	02	17	21	37	04 	   1.3	  210	
2018	02	17	21	36	34 	   3.6	  146	
2018	02	17	21	36	04 	   6.0	  207	
2018	02	17	21	35	34 	   3.4	  195	
2018	02	17	21	35	04 	   3.4	  195	
2018	02	17	21	34	34 	   6.0	  141	
2018	02	17	21	34	04 	   5.8	  174	
2018	02	17	21	33	34 	   6.3	  214	
2018	02	17	21	33	04 	   5.1	  150	
2018	02	17	21	32	34 	   8.5	  159	
2018	02	17	21	32	04 	   6.0	  218	
2018	02	17	21	31	34 	  10.5	  160	
2018	02	17	21	31	04 	   5.1	  124	
2018	02	17	21	30	34 	   1.1	  203	
2018	02	17	21	30	04 	   2.7	  156	
2018	02	17	21	29	34 	   5.1	  192	
2018	02	17	21	29	04 	   9.4	  191	
2018	02	17	21	28	34 	  10.5	  200	
2018	02	17	21	28	04 	   5.1	  168	
2018	02	17	21	27	34 	   6.7	  211	
2018	02	17	21	27	04 	   4.7	  155	
2018	02	17	21	26	34 	   8.5	  174	
2018	02	17	21	26	04 	   8.1	  174	
2018	02	17	21	25	34 	   2.9	  184	
2018	02	17	21	25	04 	   4.3	  145	
2018	02	17	21	24	34 	   4.3	  174	
2018	02	17	21	24	04 	   4.5	  157	
2018	02	17	21	23	34 	   4.3	  183	
2018	02	17	21	23	04 	   8.9	  197	
2018	02	17	21	22	34 	   8.1	  156	
2018	02	17	21	22	04 	   6.9	  195	
2018	02	17	21	21	34 	   6.9	  182	
2018	02	17	21	21	04 	   6.0	  188	
2018	02	17	21	20	34 	   6.3	  174	
2018	02	17	21	20	04 	   5.4	  189	
2018	02	17	21	19	34 	   3.6	  169	
2018	02	17	21	19	04 	   4.5	  166	
2018	02	17	21	18	34 	   5.1	  154	
2018	02	17	21	18	04 	   2.5	  190	
2018	02	17	21	17	34 	   7.2	  189	
2018	02	17	21	17	04 	   3.1	  164	
2018	02	17	21	16	34 	   6.3	  170	
2018	02	17	21	16	04 	   6.9	  182	
2018	02	17	21	15	34 	   3.8	  187	
2018	02	17	21	15	04 	   4.3	  198	
2018	02	17	21	14	34 	   4.3	  150	
2018	02	17	21	14	04 	  10.1	  199	
2018	02	17	21	13	34 	  10.7	  203	
2018	02	17	21	13	04 	   9.2	  185	
2018	02	17	21	12	34 	   8.1	  174	
2018	02	17	21	12	04 	   6.9	  180	
2018	02	17	21	11	34 	   2.9	  203	
2018	02	17	21	11	04 	   3.8	  163	
2018	02	17	21	10	34 	  10.5	  172	
2018	02	17	21	10	04 	  13.9	  205	
2018	02	17	21	09	34 	  11.4	  143	
2018	02	17	21	09	04 	   4.3	  174	
2018	02	17	21	08	34 	   3.4	  157	
2018	02	17	21	08	04 	   5.1	  153	
2018	02	17	21	07	34 	   6.7	  144	
2018	02	17	21	07	04 	   4.7	  169	
2018	02	17	21	06	34 	  12.5	  166	
2018	02	17	21	06	04 	   8.5	  187	
2018	02	17	21	05	34 	   6.9	  195	
2018	02	17	21	05	04 	  11.6	  184	
2018	02	17	21	04	34 	   6.7	  161	
2018	02	17	21	04	04 	  16.6	  227	
2018	02	17	21	03	34 	   8.7	  164	
2018	02	17	21	03	04 	  11.0	  199	
2018	02	17	21	02	34 	   7.6	  170	
2018	02	17	21	02	04 	   4.3	  171	
2018	02	17	21	01	34 	   6.7	  154	
2018	02	17	21	01	04 	   8.1	  159	
2018	02	17	21	00	34 	  12.3	  188	
2018	02	17	21	00	04 	   6.0	  153	
2018	02	17	20	59	34 	   4.9	  133	
2018	02	17	20	59	04 	   9.2	  163	
2018	02	17	20	58	34 	   6.5	  153	
2018	02	17	20	58	04 	   5.8	  191	
2018	02	17	20	57	34 	   5.8	  170	
2018	02	17	20	57	04 	  12.5	  185	
2018	02	17	20	56	34 	  19.2	  199	
2018	02	17	20	56	04 	   4.3	  183	
2018	02	17	20	55	34 	   4.5	  160	
2018	02	17	20	55	04 	   4.3	  183	
2018	02	17	20	54	34 	   5.8	  191	
2018	02	17	20	54	04 	   5.6	  150	
2018	02	17	20	53	34 	   7.2	  149	
2018	02	17	20	53	04 	   7.6	  160	
2018	02	17	20	52	34 	   6.7	  177	
2018	02	17	20	52	04 	   6.7	  199	
2018	02	17	20	51	34 	   4.3	  133	
2018	02	17	20	51	04 	   8.9	  173	
2018	02	17	20	50	34 	   3.8	  180	
2018	02	17	20	50	04 	   7.6	  130	
2018	02	17	20	49	34 	   6.7	  157	
2018	02	17	20	49	04 	  12.8	  231	
2018	02	17	20	48	34 	   6.9	  163	
2018	02	17	20	48	04 	   3.1	  180	
2018	02	17	20	47	34 	   4.0	  132	
2018	02	17	20	47	04 	   6.0	  184	
2018	02	17	20	46	34 	   3.6	  146	
2018	02	17	20	46	04 	   6.9	  140	
2018	02	17	20	45	34 	   3.6	  191	
2018	02	17	20	45	04 	   6.3	  178	
2018	02	17	20	44	34 	   1.6	  180	
2018	02	17	20	44	04 	   4.5	  175	
2018	02	17	20	43	34 	   3.6	  194	
2018	02	17	20	43	04 	   5.4	  180	
2018	02	17	20	42	34 	   4.3	  183	
2018	02	17	20	42	04 	   7.4	  164	
2018	02	17	20	41	34 	  11.0	  177	
2018	02	17	20	41	04 	   8.9	  204	
2018	02	17	20	40	34 	   8.3	  179	
2018	02	17	20	40	04 	   3.6	  180	
2018	02	17	20	39	34 	   6.0	  165	
2018	02	17	20	39	04 	   5.8	  172	
2018	02	17	20	38	34 	   4.5	  194	
2018	02	17	20	38	04 	   9.4	  179	
2018	02	17	20	37	34 	   4.0	  157	
2018	02	17	20	37	04 	   4.0	  157	
2018	02	17	20	36	34 	   7.6	  165	
2018	02	17	20	36	04 	  10.7	  150	
2018	02	17	20	35	34 	   6.0	  168	
2018	02	17	20	35	04 	   2.5	  201	
2018	02	17	20	34	34 	   4.9	  145	
2018	02	17	20	34	04 	   8.9	  177	
2018	02	17	20	33	35 	   6.3	  174	
2018	02	17	20	33	05 	   6.3	  170	
2018	02	17	20	32	35 	   3.1	  197	
2018	02	17	20	32	05 	   7.4	  194	
2018	02	17	20	31	35 	  13.2	  197	
2018	02	17	20	31	05 	   4.7	  169	
2018	02	17	20	30	35 	   3.6	  162	
2018	02	17	20	30	05 	   3.4	  165	
2018	02	17	20	29	35 	   6.3	  178	
2018	02	17	20	29	05 	   5.4	  202	
2018	02	17	20	28	35 	   8.5	  171	
2018	02	17	20	28	05 	   7.6	  163	
2018	02	17	20	27	35 	   3.4	  165	
2018	02	17	20	27	05 	   3.4	  172	
2018	02	17	20	26	35 	   3.1	  205	
2018	02	17	20	26	05 	   3.1	  150	
2018	02	17	20	25	35 	   5.1	  168	
2018	02	17	20	25	05 	   4.5	  175	
2018	02	17	20	24	35 	  11.6	  201	
2018	02	17	20	24	05 	   6.9	  195	
2018	02	17	20	23	35 	   6.0	  184	
2018	02	17	20	23	05 	   9.2	  175	
2018	02	17	20	22	35 	   7.6	  177	
2018	02	17	20	22	05 	   6.7	  184	
2018	02	17	20	21	35 	   8.5	  189	
2018	02	17	20	21	05 	  10.3	  152	
2018	02	17	20	20	35 	   4.3	  137	
2018	02	17	20	20	05 	   2.0	  174	
2018	02	17	20	19	35 	   2.7	  175	
2018	02	17	20	19	05 	   6.7	  180	
2018	02	17	20	18	35 	   6.9	  205	
2018	02	17	20	18	05 	   8.1	  189	
2018	02	17	20	17	35 	  11.4	  196	
2018	02	17	20	17	05 	   2.9	  171	
2018	02	17	20	16	35 	   8.3	  116	
2018	02	17	20	16	05 	   6.5	  142	
2018	02	17	20	15	35 	   2.7	  166	
2018	02	17	20	15	05 	   4.7	  161	
2018	02	17	20	14	35 	   6.9	  177	
2018	02	17	20	14	05 	   8.5	  163	
2018	02	17	20	13	35 	  11.4	  153	
2018	02	17	20	13	05 	   8.5	  180	
2018	02	17	20	12	35 	   9.8	  184	
2018	02	17	20	12	05 	   4.9	  178	
2018	02	17	20	11	35 	   7.2	  156	
2018	02	17	20	11	05 	   6.9	  150	
2018	02	17	20	10	35 	   6.7	  180	
2018	02	17	20	10	05 	   6.5	  150	
2018	02	17	20	09	35 	   9.8	  139	
2018	02	17	20	09	05 	   3.6	  191	
2018	02	17	20	08	35 	   3.1	  155	
2018	02	17	20	08	05 	   3.6	  191	
2018	02	17	20	07	35 	   3.1	  140	
2018	02	17	20	07	05 	  12.3	  133	
2018	02	17	20	06	35 	   4.0	  161	
2018	02	17	20	06	05 	   6.3	  168	
2018	02	17	20	05	35 	   7.2	  194	
2018	02	17	20	05	05 	   5.6	  134	
2018	02	17	20	04	35 	   2.0	  186	
2018	02	17	20	04	05 	   2.5	  201	
2018	02	17	20	03	35 	   4.3	  145	
2018	02	17	20	03	05 	   4.0	  157	
2018	02	17	20	02	35 	   6.0	  150	
2018	02	17	20	02	05 	   1.3	  132	
2018	02	17	20	01	35 	   5.6	  164	
2018	02	17	20	01	05 	   4.0	  199	
2018	02	17	20	00	35 	   3.6	  191	
2018	02	17	20	00	05 	   3.8	  190	
2018	02	17	19	59	35 	   5.1	  150	
2018	02	17	19	59	05 	   4.5	  194	
2018	02	17	19	58	35 	   5.6	  189	
2018	02	17	19	58	05 	   6.3	  154	
2018	02	17	19	57	35 	   2.7	  180	
2018	02	17	19	57	05 	   3.8	  187	
2018	02	17	19	56	35 	  11.0	  181	
2018	02	17	19	56	05 	   4.9	  188	
2018	02	17	19	55	35 	  12.1	  151	
2018	02	17	19	55	05 	   3.8	  150	
2018	02	17	19	54	35 	   9.6	  150	
2018	02	17	19	54	05 	   4.9	  159	
2018	02	17	19	53	35 	   5.4	  158	
2018	02	17	19	53	05 	   4.7	  139	
2018	02	17	19	52	35 	   2.7	  180	
2018	02	17	19	52	05 	   4.3	  150	
2018	02	17	19	51	35 	   5.6	  198	
2018	02	17	19	51	05 	   4.3	  177	
2018	02	17	19	50	35 	   3.4	  143	
2018	02	17	19	50	05 	   4.3	  162	
2018	02	17	19	49	35 	   3.1	  205	
2018	02	17	19	49	05 	   8.7	  161	
2018	02	17	19	48	35 	   2.9	  184	
2018	02	17	19	48	05 	   6.5	  210	
2018	02	17	19	47	35 	   6.0	  159	
2018	02	17	19	47	05 	   9.6	  168	
2018	02	17	19	46	35 	   5.8	  191	
2018	02	17	19	46	05 	   3.8	  180	
2018	02	17	19	45	35 	   4.3	  137	
2018	02	17	19	45	05 	   7.2	  189	
2018	02	17	19	44	35 	   5.6	  213	
2018	02	17	19	44	05 	   4.7	  194	
2018	02	17	19	43	35 	   3.4	  169	
2018	02	17	19	43	05 	   3.1	  212	
2018	02	17	19	42	35 	   2.0	  132	
2018	02	17	19	42	05 	   4.3	  150	
2018	02	17	19	41	35 	   2.7	  145	
2018	02	17	19	41	05 	   2.7	  150	
2018	02	17	19	40	35 	   2.7	  166	
2018	02	17	19	40	05 	   8.5	  194	
2018	02	17	19	39	35 	   2.5	  180	
2018	02	17	19	39	05 	   3.1	  180	
2018	02	17	19	38	35 	   5.4	  152	
2018	02	17	19	38	05 	   4.0	  174	
2018	02	17	19	37	35 	   3.8	  170	
2018	02	17	19	37	05 	   1.3	  210	
2018	02	17	19	36	35 	   2.2	  150	
2018	02	17	19	36	05 	   5.8	  170	
2018	02	17	19	35	35 	   6.7	  157	
2018	02	17	19	35	05 	   4.0	  177	
2018	02	17	19	34	35 	   2.7	  156	
2018	02	17	19	34	05 	   1.8	  187	
2018	02	17	19	33	35 	   6.9	  165	
2018	02	17	19	33	05 	   4.9	  223	
2018	02	17	19	32	35 	   7.2	  129	
2018	02	17	19	32	05 	   6.3	  157	
2018	02	17	19	31	35 	   7.6	  169	
2018	02	17	19	31	05 	   3.6	  191	
2018	02	17	19	30	35 	   6.5	  150	
2018	02	17	19	30	05 	   7.4	  157	
2018	02	17	19	29	35 	   7.8	  204	
2018	02	17	19	29	05 	   8.7	  161	
2018	02	17	19	28	35 	   5.1	  150	
2018	02	17	19	28	05 	   2.9	  153	
2018	02	17	19	27	35 	  12.5	  187	
2018	02	17	19	27	05 	   2.9	  117	
2018	02	17	19	26	35 	   3.4	  191	
2018	02	17	19	26	05 	   4.0	  154	
2018	02	17	19	25	35 	  12.3	  152	
2018	02	17	19	25	05 	   9.6	  164	
2018	02	17	19	24	35 	   2.9	  189	
2018	02	17	19	24	05 	   1.3	  161	
2018	02	17	19	23	35 	   4.5	  157	
2018	02	17	19	23	05 	   3.1	  188	
2018	02	17	19	22	35 	   3.1	  188	
2018	02	17	19	22	05 	   5.8	  162	
2018	02	17	19	21	35 	   3.6	  169	
2018	02	17	19	21	05 	   2.9	  148	
2018	02	17	19	20	35 	   5.1	  178	
2018	02	17	19	20	05 	   8.5	  151	
2018	02	17	19	19	35 	   7.2	  182	
2018	02	17	19	19	05 	   7.2	  160	
2018	02	17	19	18	35 	   5.4	  139	
2018	02	17	19	18	05 	  11.6	  169	
2018	02	17	19	17	35 	   3.8	  177	
2018	02	17	19	17	05 	   6.0	  184	
2018	02	17	19	16	35 	   3.6	  148	
2018	02	17	19	16	05 	   4.9	  144	
2018	02	17	19	15	35 	   7.2	  156	
2018	02	17	19	15	05 	   5.8	  149	
2018	02	17	19	14	35 	   5.1	  182	
2018	02	17	19	14	05 	   4.5	  157	
2018	02	17	19	13	35 	   4.3	  146	
2018	02	17	19	13	05 	   3.1	  159	
2018	02	17	19	12	35 	   6.9	  152	
2018	02	17	19	12	05 	  11.0	  161	
2018	02	17	19	11	35 	   5.6	  159	
2018	02	17	19	11	05 	   4.7	  169	
2018	02	17	19	10	35 	   3.6	  194	
2018	02	17	19	10	05 	   2.5	  141	
2018	02	17	19	09	35 	   0.4	  150	
2018	02	17	19	09	05 	   8.3	  163	
2018	02	17	19	08	35 	   7.6	  207	
2018	02	17	19	08	05 	   2.7	  180	
2018	02	17	19	07	35 	   5.6	  137	
2018	02	17	19	07	05 	   4.9	  144	
2018	02	17	19	06	35 	   4.7	  175	
2018	02	17	19	06	05 	   8.9	  170	
2018	02	17	19	05	35 	   3.4	  172	
2018	02	17	19	05	05 	   5.8	  146	
2018	02	17	19	04	35 	   7.4	  189	
2018	02	17	19	04	05 	   5.6	  169	
2018	02	17	19	03	35 	   3.6	  141	
2018	02	17	19	03	05 	   5.8	  155	
2018	02	17	19	02	35 	  13.0	  197	
2018	02	17	19	02	05 	   2.5	  164	
2018	02	17	19	01	35 	   7.2	  179	
2018	02	17	19	01	05 	  10.7	  137	
2018	02	17	19	00	35 	  10.5	  180	
2018	02	17	19	00	05 	   3.4	  152	
2018	02	17	18	59	35 	   4.9	  145	
2018	02	17	18	59	05 	   3.1	  172	
2018	02	17	18	58	35 	  11.9	  156	
2018	02	17	18	58	05 	   3.1	  145	
2018	02	17	18	57	35 	   4.3	  159	
2018	02	17	18	57	05 	   2.9	  184	
2018	02	17	18	56	35 	   8.5	  168	
2018	02	17	18	56	05 	   7.4	  159	
2018	02	17	18	55	35 	   3.8	  163	
2018	02	17	18	55	05 	   5.6	  150	
2018	02	17	18	54	35 	   0.4	  120	
2018	02	17	18	54	05 	   5.8	  187	
2018	02	17	18	53	35 	   4.5	  186	
2018	02	17	18	53	05 	   6.3	  168	
2018	02	17	18	52	35 	   5.6	  178	
2018	02	17	18	52	05 	  10.7	  155	
2018	02	17	18	51	35 	   6.5	  188	
2018	02	17	18	51	05 	   5.6	  166	
2018	02	17	18	50	35 	   4.5	  166	
2018	02	17	18	50	05 	   4.3	  150	
2018	02	17	18	49	35 	  11.4	  154	
2018	02	17	18	49	05 	   1.1	  127	
2018	02	17	18	48	35 	   4.3	  150	
2018	02	17	18	48	05 	   8.9	  163	
2018	02	17	18	47	35 	   6.5	  148	
2018	02	17	18	47	05 	   9.8	  158	
2018	02	17	18	46	35 	  11.2	  184	
2018	02	17	18	46	05 	   4.7	  188	
2018	02	17	18	45	35 	  12.3	  156	
2018	02	17	18	45	05 	   4.7	  175	
2018	02	17	18	44	35 	   5.1	  170	
2018	02	17	18	44	05 	   4.5	  194	
2018	02	17	18	43	35 	  11.9	  173	
2018	02	17	18	43	05 	   8.9	  169	
2018	02	17	18	42	35 	   4.7	  175	
2018	02	17	18	42	05 	  13.0	  164	
2018	02	17	18	41	35 	   9.8	  143	
2018	02	17	18	41	05 	   0.4	  150	
2018	02	17	18	40	35 	   7.8	  127	
2018	02	17	18	40	05 	   5.6	  174	
2018	02	17	18	39	35 	   2.9	  128	
2018	02	17	18	39	05 	   4.0	  161	
2018	02	17	18	38	35 	  13.4	  168	
2018	02	17	18	38	05 	   4.5	  157	
2018	02	17	18	37	35 	  17.4	  171	
2018	02	17	18	37	05 	   5.8	  160	
2018	02	17	18	36	35 	   7.2	  160	
2018	02	17	18	36	05 	   2.7	  166	
2018	02	17	18	35	35 	   8.3	  150	
2018	02	17	18	35	05 	   5.4	  163	
2018	02	17	18	34	35 	   5.4	  152	
2018	02	17	18	34	05 	   4.9	  164	
2018	02	17	18	33	35 	   9.6	  144	
2018	02	17	18	33	05 	   6.0	  180	
2018	02	17	18	32	35 	   2.9	  142	
2018	02	17	18	32	05 	  10.1	  135	
2018	02	17	18	31	35 	   5.1	  170	
2018	02	17	18	31	05 	   9.8	  152	
2018	02	17	18	30	35 	   7.8	  150	
2018	02	17	18	30	05 	   3.8	  204	
2018	02	17	18	29	35 	   8.3	  154	
2018	02	17	18	29	05 	   5.8	  174	
2018	02	17	18	28	35 	   3.4	  184	
2018	02	17	18	28	05 	  10.3	  152	
2018	02	17	18	27	35 	   6.0	  184	
2018	02	17	18	27	05 	   6.3	  146	
2018	02	17	18	26	35 	   5.8	  167	
2018	02	17	18	26	05 	   2.2	  150	
2018	02	17	18	25	35 	  12.1	  154	
2018	02	17	18	25	05 	   9.4	  198	


Time [Local Time: 24 hour], Temperatures [F], RH [%], Pressure [hPa], Visibility [feet], and Precipitation [Inches]

Max & min values for TT_2m and TT_10m, Tch_2m, RH, PP, and Visibility are over last hour

Max & min values for ground temperature Tg are over the last 24 hours

Meteorological wind direction dd [degrees], Wind Speed ff [mph]; winds are instantaneous values